Observation data for Van Horn on 08/20/2019      Previous  Date       Current Mesonet Observations  Soil Data  Daily Summary Page  Observations in Plain Language
KVA1 200500Z 18003KT 30/13 A3008 RMK A01 T02970125  RH  035%=      5-min Rain = 0
KVA1 200501Z 18003KT 30/13 A3009 RMK A01 T02960126  RH  035%=      5-min Rain = 0
KVA1 200502Z 18003KT 30/13 A3009 RMK A01 T02950126  RH  035%=      5-min Rain = 0
KVA1 200503Z 17003KT 30/13 A3009 RMK A01 T02950127  RH  036%=      5-min Rain = 0
KVA1 200504Z 16003KT 29/13 A3009 RMK A01 T02940127  RH  036%=      5-min Rain = 0
KVA1 200505Z 17004KT 29/13 A3009 RMK A01 T02930126  RH  036%=      5-min Rain = 0
KVA1 200506Z 17004KT 29/13 A3009 RMK A01 T02930127  RH  036%=      5-min Rain = 0
KVA1 200507Z 16006KT 29/13 A3009 RMK A01 T02930128  RH  036%=      5-min Rain = 0
KVA1 200508Z 17005KT 29/13 A3009 RMK A01 T02930128  RH  036%=      5-min Rain = 0
KVA1 200509Z 17007KT 29/13 A3009 RMK A01 T02940129  RH  036%=      5-min Rain = 0
KVA1 200510Z 17007KT 30/13 A3009 RMK A01 T02950130  RH  036%=      5-min Rain = 0
KVA1 200511Z 17007KT 30/13 A3009 RMK A01 T02960130  RH  036%=      5-min Rain = 0
KVA1 200512Z 17007KT 30/13 A3009 RMK A01 T02970129  RH  036%=      5-min Rain = 0
KVA1 200513Z 17007KT 30/13 A3009 RMK A01 T02980129  RH  035%=      5-min Rain = 0
KVA1 200514Z 17007KT 30/13 A3009 RMK A01 T02990129  RH  035%=      5-min Rain = 0
KVA1 200515Z 17007KT 30/13 A3009 RMK A01 T02990129  RH  035%=      5-min Rain = 0
KVA1 200516Z 16007KT 30/13 A3009 RMK A01 T02990129  RH  035%=      5-min Rain = 0
KVA1 200517Z 16009KT 30/13 A3008 RMK A01 T02990129  RH  035%=      5-min Rain = 0
KVA1 200518Z 16008KT 30/13 A3008 RMK A01 T03000129  RH  035%=      5-min Rain = 0
KVA1 200519Z 16008KT 30/13 A3009 RMK A01 T03000129  RH  035%=      5-min Rain = 0
KVA1 200520Z 16007KT 30/13 A3009 RMK A01 T03000129  RH  035%=      5-min Rain = 0
KVA1 200521Z 16007KT 30/13 A3009 RMK A01 T03000129  RH  035%=      5-min Rain = 0
KVA1 200522Z 16007KT 30/13 A3008 RMK A01 T03000129  RH  035%=      5-min Rain = 0
KVA1 200523Z 16007KT 30/13 A3008 RMK A01 T03000129  RH  035%=      5-min Rain = 0
KVA1 200524Z 16006KT 30/13 A3009 RMK A01 T02990129  RH  035%=      5-min Rain = 0
KVA1 200525Z 16006KT 30/13 A3009 RMK A01 T02990128  RH  035%=      5-min Rain = 0
KVA1 200526Z 16006KT 30/13 A3009 RMK A01 T02980129  RH  035%=      5-min Rain = 0
KVA1 200527Z 16005KT 30/13 A3009 RMK A01 T02980128  RH  035%=      5-min Rain = 0
KVA1 200528Z 16005KT 30/13 A3009 RMK A01 T02970128  RH  035%=      5-min Rain = 0
KVA1 200529Z 16005KT 30/13 A3009 RMK A01 T02970128  RH  035%=      5-min Rain = 0
KVA1 200530Z 16004KT 30/13 A3009 RMK A01 T02960128  RH  036%=      5-min Rain = 0
KVA1 200531Z 15005KT 30/13 A3009 RMK A01 T02960128  RH  036%=      5-min Rain = 0
KVA1 200532Z 15004KT 30/13 A3009 RMK A01 T02950128  RH  036%=      5-min Rain = 0
KVA1 200533Z 14004KT 30/13 A3009 RMK A01 T02950129  RH  036%=      5-min Rain = 0
KVA1 200534Z 15005KT 29/13 A3008 RMK A01 T02940128  RH  036%=      5-min Rain = 0
KVA1 200535Z 15004KT 29/13 A3008 RMK A01 T02940128  RH  036%=      5-min Rain = 0
KVA1 200536Z 15004KT 29/13 A3008 RMK A01 T02930128  RH  036%=      5-min Rain = 0
KVA1 200537Z 14003KT 29/13 A3008 RMK A01 T02930128  RH  036%=      5-min Rain = 0
KVA1 200538Z 14003KT 29/13 A3008 RMK A01 T02930128  RH  036%=      5-min Rain = 0
KVA1 200539Z 14003KT 29/13 A3008 RMK A01 T02920128  RH  036%=      5-min Rain = 0
KVA1 200540Z 15003KT 29/13 A3008 RMK A01 T02910128  RH  036%=      5-min Rain = 0
KVA1 200541Z 15002KT 29/13 A3008 RMK A01 T02910128  RH  037%=      5-min Rain = 0
KVA1 200542Z 14001KT 29/13 A3008 RMK A01 T02900128  RH  037%=      5-min Rain = 0
KVA1 200543Z 15001KT 29/13 A3008 RMK A01 T02900128  RH  037%=      5-min Rain = 0
KVA1 200544Z 15002KT 29/13 A3008 RMK A01 T02890127  RH  037%=      5-min Rain = 0
KVA1 200545Z 16001KT 29/13 A3009 RMK A01 T02890128  RH  037%=      5-min Rain = 0
KVA1 200546Z 22001KT 29/13 A3009 RMK A01 T02880130  RH  038%=      5-min Rain = 0
KVA1 200547Z 24001KT 29/13 A3008 RMK A01 T02860129  RH  038%=      5-min Rain = 0
KVA1 200548Z 22001KT 28/13 A3008 RMK A01 T02840129  RH  038%=      5-min Rain = 0
KVA1 200549Z 22002KT 28/13 A3008 RMK A01 T02830129  RH  039%=      5-min Rain = 0
KVA1 200550Z 22003KT 28/13 A3008 RMK A01 T02830129  RH  039%=      5-min Rain = 0
KVA1 200551Z 23002KT 28/13 A3008 RMK A01 T02820129  RH  039%=      5-min Rain = 0
KVA1 200552Z 24002KT 28/13 A3008 RMK A01 T02810128  RH  039%=      5-min Rain = 0
KVA1 200553Z 26002KT 28/13 A3008 RMK A01 T02800129  RH  039%=      5-min Rain = 0
KVA1 200554Z 25002KT 28/13 A3008 RMK A01 T02790129  RH  040%=      5-min Rain = 0
KVA1 200555Z 25002KT 28/13 A3008 RMK A01 T02780130  RH  040%=      5-min Rain = 0
KVA1 200556Z 22002KT 28/13 A3008 RMK A01 T02770129  RH  040%=      5-min Rain = 0
KVA1 200557Z 21002KT 28/13 A3008 RMK A01 T02760129  RH  040%=      5-min Rain = 0
KVA1 200558Z 21001KT 28/13 A3008 RMK A01 T02770129  RH  040%=      5-min Rain = 0
KVA1 200559Z 14000KT 28/13 A3008 RMK A01 T02770129  RH  040%=      5-min Rain = 0
KVA1 200600Z 27001KT 28/13 A3008 RMK A01 T02770127  RH  039%=      5-min Rain = 0
KVA1 200601Z 24001KT 28/13 A3008 RMK A01 T02780129  RH  040%=      5-min Rain = 0
KVA1 200602Z 25002KT 28/13 A3008 RMK A01 T02790128  RH  039%=      5-min Rain = 0
KVA1 200603Z 24003KT 28/13 A3008 RMK A01 T02800127  RH  039%=      5-min Rain = 0
KVA1 200604Z 21001KT 28/13 A3008 RMK A01 T02830126  RH  038%=      5-min Rain = 0
KVA1 200605Z 20002KT 29/13 A3008 RMK A01 T02860126  RH  037%=      5-min Rain = 0
KVA1 200606Z 21002KT 29/13 A3008 RMK A01 T02900127  RH  037%=      5-min Rain = 0
KVA1 200607Z 18002KT 29/13 A3008 RMK A01 T02900127  RH  036%=      5-min Rain = 0
KVA1 200608Z 15004KT 29/13 A3008 RMK A01 T02910126  RH  036%=      5-min Rain = 0
KVA1 200609Z 16004KT 29/13 A3008 RMK A01 T02920126  RH  036%=      5-min Rain = 0
KVA1 200610Z 19002KT 29/13 A3008 RMK A01 T02930125  RH  036%=      5-min Rain = 0
KVA1 200611Z 18003KT 29/13 A3008 RMK A01 T02930126  RH  036%=      5-min Rain = 0
KVA1 200612Z 17004KT 29/13 A3008 RMK A01 T02940126  RH  036%=      5-min Rain = 0
KVA1 200613Z 19002KT 29/13 A3008 RMK A01 T02940126  RH  036%=      5-min Rain = 0
KVA1 200614Z 18003KT 29/13 A3008 RMK A01 T02940127  RH  036%=      5-min Rain = 0
KVA1 200615Z 17004KT 29/13 A3008 RMK A01 T02930128  RH  036%=      5-min Rain = 0
KVA1 200616Z 17004KT 29/13 A3008 RMK A01 T02920127  RH  036%=      5-min Rain = 0
KVA1 200617Z 18006KT 29/13 A3008 RMK A01 T02920127  RH  036%=      5-min Rain = 0
KVA1 200618Z 18007KT 29/13 A3008 RMK A01 T02920127  RH  036%=      5-min Rain = 0
KVA1 200619Z 18007KT 29/13 A3008 RMK A01 T02920128  RH  036%=      5-min Rain = 0
KVA1 200620Z 19007KT 29/13 A3008 RMK A01 T02920128  RH  036%=      5-min Rain = 0
KVA1 200621Z 18006KT 29/13 A3008 RMK A01 T02910128  RH  037%=      5-min Rain = 0
KVA1 200622Z 18008KT 29/13 A3008 RMK A01 T02900128  RH  037%=      5-min Rain = 0
KVA1 200623Z 19007KT 29/13 A3008 RMK A01 T02900128  RH  037%=      5-min Rain = 0
KVA1 200624Z 18006KT 29/13 A3008 RMK A01 T02900128  RH  037%=      5-min Rain = 0
KVA1 200625Z 19005KT 29/13 A3008 RMK A01 T02890128  RH  037%=      5-min Rain = 0
KVA1 200626Z 18006KT 29/13 A3008 RMK A01 T02890128  RH  037%=      5-min Rain = 0
KVA1 200627Z 19006KT 29/13 A3008 RMK A01 T02890128  RH  037%=      5-min Rain = 0
KVA1 200628Z 19006KT 29/13 A3008 RMK A01 T02880129  RH  037%=      5-min Rain = 0
KVA1 200629Z 19007KT 29/13 A3008 RMK A01 T02880128  RH  037%=      5-min Rain = 0
KVA1 200630Z 19007KT 29/13 A3008 RMK A01 T02880129  RH  037%=      5-min Rain = 0
KVA1 200631Z 20007KT 29/13 A3008 RMK A01 T02880128  RH  037%=      5-min Rain = 0
KVA1 200632Z 20009KT 29/13 A3008 RMK A01 T02880129  RH  037%=      5-min Rain = 0
KVA1 200633Z 20007KT 29/13 A3008 RMK A01 T02880129  RH  037%=      5-min Rain = 0
KVA1 200634Z 21006KT 29/13 A3008 RMK A01 T02870129  RH  038%=      5-min Rain = 0
KVA1 200635Z 21007KT 29/13 A3008 RMK A01 T02870128  RH  038%=      5-min Rain = 0
KVA1 200636Z 21006KT 29/13 A3008 RMK A01 T02860129  RH  038%=      5-min Rain = 0
KVA1 200637Z 23004KT 29/13 A3008 RMK A01 T02860128  RH  038%=      5-min Rain = 0
KVA1 200638Z 20004KT 29/13 A3008 RMK A01 T02850128  RH  038%=      5-min Rain = 0
KVA1 200639Z 20005KT 29/13 A3008 RMK A01 T02850128  RH  038%=      5-min Rain = 0
KVA1 200640Z 22003KT 29/13 A3008 RMK A01 T02850128  RH  038%=      5-min Rain = 0
KVA1 200641Z 21005KT 29/13 A3008 RMK A01 T02850128  RH  038%=      5-min Rain = 0
KVA1 200642Z 23002KT 28/13 A3008 RMK A01 T02840129  RH  038%=      5-min Rain = 0
KVA1 200643Z 21003KT 28/13 A3008 RMK A01 T02840129  RH  038%=      5-min Rain = 0
KVA1 200644Z 20005KT 28/13 A3008 RMK A01 T02830129  RH  039%=      5-min Rain = 0
KVA1 200645Z 20005KT 28/13 A3008 RMK A01 T02830129  RH  039%=      5-min Rain = 0
KVA1 200646Z 21004KT 28/13 A3008 RMK A01 T02830129  RH  039%=      5-min Rain = 0
KVA1 200647Z 21003KT 28/13 A3008 RMK A01 T02820129  RH  039%=      5-min Rain = 0
KVA1 200648Z 18003KT 28/13 A3008 RMK A01 T02820129  RH  039%=      5-min Rain = 0
KVA1 200649Z 20003KT 28/13 A3008 RMK A01 T02820129  RH  039%=      5-min Rain = 0
KVA1 200650Z 20004KT 28/13 A3008 RMK A01 T02810129  RH  039%=      5-min Rain = 0
KVA1 200651Z 21004KT 28/13 A3008 RMK A01 T02810130  RH  039%=      5-min Rain = 0
KVA1 200652Z 19004KT 28/13 A3008 RMK A01 T02820130  RH  039%=      5-min Rain = 0
KVA1 200653Z 19003KT 28/13 A3008 RMK A01 T02810130  RH  039%=      5-min Rain = 0
KVA1 200654Z 19004KT 28/13 A3008 RMK A01 T02820130  RH  039%=      5-min Rain = 0
KVA1 200655Z 20002KT 28/13 A3008 RMK A01 T02820130  RH  039%=      5-min Rain = 0
KVA1 200656Z 19002KT 28/13 A3008 RMK A01 T02820131  RH  039%=      5-min Rain = 0
KVA1 200657Z 17005KT 28/13 A3008 RMK A01 T02810131  RH  040%=      5-min Rain = 0
KVA1 200658Z 18002KT 28/13 A3009 RMK A01 T02810131  RH  040%=      5-min Rain = 0
KVA1 200659Z 18004KT 28/13 A3009 RMK A01 T02810131  RH  040%=      5-min Rain = 0
KVA1 200700Z 16002KT 28/13 A3009 RMK A01 T02810132  RH  040%=      5-min Rain = 0
KVA1 200701Z 15001KT 28/13 A3009 RMK A01 T02810132  RH  040%=      5-min Rain = 0
KVA1 200702Z 12001KT 28/13 A3009 RMK A01 T02800132  RH  040%=      5-min Rain = 0
KVA1 200703Z 09000KT 28/13 A3009 RMK A01 T02800132  RH  040%=      5-min Rain = 0
KVA1 200704Z 11001KT 28/13 A3009 RMK A01 T02790132  RH  040%=      5-min Rain = 0
KVA1 200705Z 11001KT 28/13 A3009 RMK A01 T02790132  RH  040%=      5-min Rain = 0
KVA1 200706Z 06002KT 28/13 A3009 RMK A01 T02780132  RH  040%=      5-min Rain = 0
KVA1 200707Z 08002KT 28/13 A3009 RMK A01 T02780132  RH  040%=      5-min Rain = 0
KVA1 200708Z 10003KT 28/13 A3009 RMK A01 T02770132  RH  041%=      5-min Rain = 0
KVA1 200709Z 10003KT 28/13 A3009 RMK A01 T02770132  RH  041%=      5-min Rain = 0
KVA1 200710Z 11003KT 28/13 A3009 RMK A01 T02760132  RH  041%=      5-min Rain = 0
KVA1 200711Z 12002KT 28/13 A3009 RMK A01 T02750131  RH  041%=      5-min Rain = 0
KVA1 200712Z 09003KT 28/13 A3009 RMK A01 T02750131  RH  041%=      5-min Rain = 0
KVA1 200713Z 10003KT 28/13 A3009 RMK A01 T02760131  RH  041%=      5-min Rain = 0
KVA1 200714Z 12005KT 28/13 A3009 RMK A01 T02760131  RH  041%=      5-min Rain = 0
KVA1 200715Z 11007KT 28/13 A3009 RMK A01 T02780132  RH  041%=      5-min Rain = 0
KVA1 200716Z 10007KT 28/13 A3009 RMK A01 T02790131  RH  040%=      5-min Rain = 0
KVA1 200717Z 11004KT 28/13 A3009 RMK A01 T02820132  RH  040%=      5-min Rain = 0
KVA1 200718Z 13004KT 28/13 A3009 RMK A01 T02830132  RH  039%=      5-min Rain = 0
KVA1 200719Z 15005KT 28/13 A3009 RMK A01 T02840132  RH  039%=      5-min Rain = 0
KVA1 200720Z 16005KT 28/13 A3009 RMK A01 T02840132  RH  039%=      5-min Rain = 0
KVA1 200721Z 12003KT 28/13 A3009 RMK A01 T02840132  RH  039%=      5-min Rain = 0
KVA1 200722Z 15007G12KT 28/13 A3009 RMK A01 T02840132  RH  039%=      5-min Rain = 0
KVA1 200723Z 17006KT 28/13 A3009 RMK A01 T02840134  RH  040%=      5-min Rain = 0
KVA1 200724Z 16003KT 28/13 A3009 RMK A01 T02840134  RH  040%=      5-min Rain = 0
KVA1 200725Z 18004KT 28/13 A3009 RMK A01 T02840134  RH  040%=      5-min Rain = 0
KVA1 200726Z 18005KT 28/13 A3009 RMK A01 T02840134  RH  040%=      5-min Rain = 0
KVA1 200727Z 17005KT 28/13 A3009 RMK A01 T02840134  RH  040%=      5-min Rain = 0
KVA1 200728Z 17005KT 28/14 A3009 RMK A01 T02830135  RH  040%=      5-min Rain = 0
KVA1 200729Z 18006KT 28/14 A3009 RMK A01 T02830135  RH  040%=      5-min Rain = 0
KVA1 200730Z 16005KT 28/14 A3009 RMK A01 T02830136  RH  040%=      5-min Rain = 0
KVA1 200731Z 17006KT 28/14 A3009 RMK A01 T02820136  RH  041%=      5-min Rain = 0
KVA1 200732Z 17006KT 28/14 A3009 RMK A01 T02820135  RH  041%=      5-min Rain = 0
KVA1 200733Z 17005KT 28/14 A3009 RMK A01 T02810136  RH  041%=      5-min Rain = 0
KVA1 200734Z 18005KT 28/14 A3009 RMK A01 T02820136  RH  041%=      5-min Rain = 0
KVA1 200735Z 20005KT 28/14 A3009 RMK A01 T02820137  RH  041%=      5-min Rain = 0
KVA1 200736Z 17006KT 28/14 A3009 RMK A01 T02810137  RH  041%=      5-min Rain = 0
KVA1 200737Z 20008KT 28/14 A3009 RMK A01 T02800137  RH  041%=      5-min Rain = 0
KVA1 200738Z 20006KT 28/14 A3009 RMK A01 T02800138  RH  042%=      5-min Rain = 0
KVA1 200739Z 21005KT 28/14 A3009 RMK A01 T02800137  RH  041%=      5-min Rain = 0
KVA1 200740Z 19005KT 28/14 A3009 RMK A01 T02800137  RH  041%=      5-min Rain = 0
KVA1 200741Z 19007KT 28/14 A3009 RMK A01 T02790137  RH  042%=      5-min Rain = 0
KVA1 200742Z 19007KT 28/14 A3009 RMK A01 T02780138  RH  042%=      5-min Rain = 0
KVA1 200743Z 18007KT 28/14 A3009 RMK A01 T02780138  RH  042%=      5-min Rain = 0
KVA1 200744Z 18007KT 28/14 A3009 RMK A01 T02780139  RH  042%=      5-min Rain = 0
KVA1 200745Z 18006KT 28/14 A3009 RMK A01 T02780139  RH  042%=      5-min Rain = 0
KVA1 200746Z 19004KT 28/14 A3009 RMK A01 T02780139  RH  042%=      5-min Rain = 0
KVA1 200747Z 19005KT 28/14 A3009 RMK A01 T02780139  RH  042%=      5-min Rain = 0
KVA1 200748Z 18003KT 28/14 A3009 RMK A01 T02780140  RH  043%=      5-min Rain = 0
KVA1 200749Z 19005KT 28/14 A3009 RMK A01 T02770139  RH  043%=      5-min Rain = 0
KVA1 200750Z 18005KT 28/14 A3009 RMK A01 T02770140  RH  043%=      5-min Rain = 0
KVA1 200751Z 18005KT 28/14 A3009 RMK A01 T02770140  RH  043%=      5-min Rain = 0
KVA1 200752Z 18004KT 28/14 A3009 RMK A01 T02760140  RH  043%=      5-min Rain = 0
KVA1 200753Z 18004KT 28/14 A3009 RMK A01 T02770141  RH  043%=      5-min Rain = 0
KVA1 200754Z 17005KT 28/14 A3009 RMK A01 T02770140  RH  043%=      5-min Rain = 0
KVA1 200755Z 17003KT 28/14 A3009 RMK A01 T02770140  RH  043%=      5-min Rain = 0
KVA1 200756Z 17003KT 28/14 A3009 RMK A01 T02770140  RH  043%=      5-min Rain = 0
KVA1 200757Z 17004KT 28/14 A3009 RMK A01 T02760141  RH  043%=      5-min Rain = 0
KVA1 200758Z 16003KT 28/14 A3009 RMK A01 T02760141  RH  043%=      5-min Rain = 0
KVA1 200759Z 17003KT 28/14 A3009 RMK A01 T02760141  RH  043%=      5-min Rain = 0
KVA1 200800Z 16005KT 28/14 A3009 RMK A01 T02760143  RH  044%=      5-min Rain = 0
KVA1 200801Z 14004KT 28/14 A3009 RMK A01 T02760142  RH  044%=      5-min Rain = 0
KVA1 200802Z 16003KT 28/14 A3009 RMK A01 T02760142  RH  044%=      5-min Rain = 0
KVA1 200803Z 16003KT 28/14 A3009 RMK A01 T02760142  RH  044%=      5-min Rain = 0
KVA1 200804Z 17004KT 28/14 A3009 RMK A01 T02760143  RH  044%=      5-min Rain = 0
KVA1 200805Z 12002KT 28/14 A3009 RMK A01 T02750143  RH  044%=      5-min Rain = 0
KVA1 200806Z 19004KT 28/14 A3009 RMK A01 T02750143  RH  044%=      5-min Rain = 0
KVA1 200807Z 13004KT 28/14 A3009 RMK A01 T02750144  RH  044%=      5-min Rain = 0
KVA1 200808Z 17006KT 28/14 A3009 RMK A01 T02750144  RH  044%=      5-min Rain = 0
KVA1 200809Z 16006KT 28/15 A3009 RMK A01 T02750145  RH  045%=      5-min Rain = 0
KVA1 200810Z 16006KT 28/15 A3009 RMK A01 T02760145  RH  045%=      5-min Rain = 0
KVA1 200811Z 17005KT 28/15 A3009 RMK A01 T02750145  RH  045%=      5-min Rain = 0
KVA1 200812Z 17006KT 28/15 A3009 RMK A01 T02750145  RH  045%=      5-min Rain = 0
KVA1 200813Z 16007KT 28/15 A3009 RMK A01 T02750145  RH  045%=      5-min Rain = 0
KVA1 200814Z 17006KT 28/15 A3009 RMK A01 T02750146  RH  045%=      5-min Rain = 0
KVA1 200815Z 18006KT 28/15 A3009 RMK A01 T02750147  RH  045%=      5-min Rain = 0
KVA1 200816Z 17007KT 28/15 A3009 RMK A01 T02750147  RH  045%=      5-min Rain = 0
KVA1 200817Z 19006KT 28/15 A3009 RMK A01 T02750146  RH  045%=      5-min Rain = 0
KVA1 200818Z 18007KT 27/15 A3009 RMK A01 T02740146  RH  045%=      5-min Rain = 0
KVA1 200819Z 17007KT 27/15 A3009 RMK A01 T02740147  RH  046%=      5-min Rain = 0
KVA1 200820Z 18008KT 27/15 A3009 RMK A01 T02740147  RH  046%=      5-min Rain = 0
KVA1 200821Z 17006KT 27/15 A3009 RMK A01 T02740148  RH  046%=      5-min Rain = 0
KVA1 200822Z 16006KT 27/15 A3009 RMK A01 T02730148  RH  046%=      5-min Rain = 0
KVA1 200823Z 15007KT 27/15 A3009 RMK A01 T02730148  RH  046%=      5-min Rain = 0
KVA1 200824Z 16007KT 27/15 A3009 RMK A01 T02720148  RH  047%=      5-min Rain = 0
KVA1 200825Z 18006KT 27/15 A3009 RMK A01 T02720148  RH  047%=      5-min Rain = 0
KVA1 200826Z 20007KT 27/15 A3009 RMK A01 T02720148  RH  047%=      5-min Rain = 0
KVA1 200827Z 19006KT 27/15 A3009 RMK A01 T02720148  RH  047%=      5-min Rain = 0
KVA1 200828Z 16005KT 27/15 A3009 RMK A01 T02730149  RH  047%=      5-min Rain = 0
KVA1 200829Z 15005KT 27/15 A3009 RMK A01 T02730148  RH  047%=      5-min Rain = 0
KVA1 200830Z 15006KT 27/15 A3009 RMK A01 T02720148  RH  047%=      5-min Rain = 0
KVA1 200831Z 16006KT 27/15 A3009 RMK A01 T02710148  RH  047%=      5-min Rain = 0
KVA1 200832Z 15006KT 27/15 A3009 RMK A01 T02710149  RH  047%=      5-min Rain = 0
KVA1 200833Z 17006KT 27/15 A3009 RMK A01 T02710149  RH  047%=      5-min Rain = 0
KVA1 200834Z 19005KT 27/15 A3009 RMK A01 T02710149  RH  047%=      5-min Rain = 0
KVA1 200835Z 18006KT 27/15 A3009 RMK A01 T02720149  RH  047%=      5-min Rain = 0
KVA1 200836Z 17005KT 27/15 A3009 RMK A01 T02720149  RH  047%=      5-min Rain = 0
KVA1 200837Z 17007KT 27/15 A3009 RMK A01 T02720150  RH  047%=      5-min Rain = 0
KVA1 200838Z 18006KT 27/15 A3009 RMK A01 T02720150  RH  047%=      5-min Rain = 0
KVA1 200839Z 18006KT 27/15 A3009 RMK A01 T02710150  RH  047%=      5-min Rain = 0
KVA1 200840Z 19006KT 27/15 A3009 RMK A01 T02710150  RH  048%=      5-min Rain = 0
KVA1 200841Z 19005KT 27/15 A3009 RMK A01 T02710151  RH  048%=      5-min Rain = 0
KVA1 200842Z 17005KT 27/15 A3009 RMK A01 T02710152  RH  048%=      5-min Rain = 0
KVA1 200843Z 16005KT 27/15 A3009 RMK A01 T02720151  RH  048%=      5-min Rain = 0
KVA1 200844Z 17004KT 27/15 A3009 RMK A01 T02720152  RH  048%=      5-min Rain = 0
KVA1 200845Z 19004KT 27/15 A3009 RMK A01 T02710151  RH  048%=      5-min Rain = 0
KVA1 200846Z 19005KT 27/15 A3009 RMK A01 T02710151  RH  048%=      5-min Rain = 0
KVA1 200847Z 19006KT 27/15 A3009 RMK A01 T02710152  RH  048%=      5-min Rain = 0
KVA1 200848Z 19006KT 27/15 A3009 RMK A01 T02700152  RH  048%=      5-min Rain = 0
KVA1 200849Z 19007KT 27/15 A3009 RMK A01 T02710153  RH  048%=      5-min Rain = 0
KVA1 200850Z 20006KT 27/15 A3009 RMK A01 T02710152  RH  048%=      5-min Rain = 0
KVA1 200851Z 19005KT 27/15 A3009 RMK A01 T02710152  RH  048%=      5-min Rain = 0
KVA1 200852Z 20006KT 27/15 A3009 RMK A01 T02700153  RH  049%=      5-min Rain = 0
KVA1 200853Z 19008KT 27/15 A3009 RMK A01 T02700153  RH  049%=      5-min Rain = 0
KVA1 200854Z 19007KT 27/15 A3009 RMK A01 T02700153  RH  049%=      5-min Rain = 0
KVA1 200855Z 17008KT 27/15 A301 RMK A01 T02700153  RH  049%=      5-min Rain = 0
KVA1 200856Z 17006KT 27/15 A301 RMK A01 T02700154  RH  049%=      5-min Rain = 0
KVA1 200857Z 17006KT 27/15 A3009 RMK A01 T02710154  RH  049%=      5-min Rain = 0
KVA1 200858Z 16008KT 27/15 A3009 RMK A01 T02710154  RH  049%=      5-min Rain = 0
KVA1 200859Z 18006KT 27/15 A3009 RMK A01 T02710154  RH  049%=      5-min Rain = 0
KVA1 200900Z 19007KT 27/15 A3009 RMK A01 T02700154  RH  049%=      5-min Rain = 0
KVA1 200901Z 18007KT 27/15 A3009 RMK A01 T02700154  RH  049%=      5-min Rain = 0
KVA1 200902Z 18005KT 27/15 A3009 RMK A01 T02700154  RH  049%=      5-min Rain = 0
KVA1 200903Z 19005KT 27/15 A3009 RMK A01 T02700154  RH  049%=      5-min Rain = 0
KVA1 200904Z 18005KT 27/15 A3009 RMK A01 T02700154  RH  049%=      5-min Rain = 0
KVA1 200905Z 17006KT 27/15 A3009 RMK A01 T02690154  RH  049%=      5-min Rain = 0
KVA1 200906Z 19006KT 27/16 A3009 RMK A01 T02700155  RH  049%=      5-min Rain = 0
KVA1 200907Z 18006KT 27/16 A3009 RMK A01 T02700155  RH  049%=      5-min Rain = 0
KVA1 200908Z 18007KT 27/15 A3009 RMK A01 T02690154  RH  049%=      5-min Rain = 0
KVA1 200909Z 19006KT 27/16 A3009 RMK A01 T02700155  RH  049%=      5-min Rain = 0
KVA1 200910Z 18006KT 27/16 A3009 RMK A01 T02700155  RH  049%=      5-min Rain = 0
KVA1 200911Z 17005KT 27/16 A3009 RMK A01 T02700155  RH  049%=      5-min Rain = 0
KVA1 200912Z 18004KT 27/16 A3009 RMK A01 T02700155  RH  049%=      5-min Rain = 0
KVA1 200913Z 20003KT 27/16 A3009 RMK A01 T02700155  RH  049%=      5-min Rain = 0
KVA1 200914Z 19004KT 27/16 A3009 RMK A01 T02700156  RH  050%=      5-min Rain = 0
KVA1 200915Z 18004KT 27/16 A3009 RMK A01 T02690156  RH  050%=      5-min Rain = 0
KVA1 200916Z 18004KT 27/16 A3009 RMK A01 T02680156  RH  050%=      5-min Rain = 0
KVA1 200917Z 17004KT 27/16 A3009 RMK A01 T02690156  RH  050%=      5-min Rain = 0
KVA1 200918Z 16005KT 27/16 A3009 RMK A01 T02680156  RH  050%=      5-min Rain = 0
KVA1 200919Z 15004KT 27/16 A3009 RMK A01 T02680155  RH  050%=      5-min Rain = 0
KVA1 200920Z 18005KT 27/16 A3009 RMK A01 T02690156  RH  050%=      5-min Rain = 0
KVA1 200921Z 18004KT 27/16 A3009 RMK A01 T02690156  RH  050%=      5-min Rain = 0
KVA1 200922Z 18004KT 27/16 A3009 RMK A01 T02690156  RH  050%=      5-min Rain = 0
KVA1 200923Z 18004KT 27/16 A3009 RMK A01 T02690157  RH  050%=      5-min Rain = 0
KVA1 200924Z 18007KT 27/16 A3009 RMK A01 T02690157  RH  050%=      5-min Rain = 0
KVA1 200925Z 17009KT 27/16 A3009 RMK A01 T02680157  RH  050%=      5-min Rain = 0
KVA1 200926Z 18008KT 27/16 A3009 RMK A01 T02690157  RH  050%=      5-min Rain = 0
KVA1 200927Z 20004KT 27/16 A3009 RMK A01 T02690157  RH  050%=      5-min Rain = 0
KVA1 200928Z 19004KT 27/16 A3009 RMK A01 T02680157  RH  051%=      5-min Rain = 0
KVA1 200929Z 18005KT 27/16 A3009 RMK A01 T02680157  RH  051%=      5-min Rain = 0
KVA1 200930Z 17005KT 27/16 A3009 RMK A01 T02670157  RH  051%=      5-min Rain = 0
KVA1 200931Z 19003KT 27/16 A3009 RMK A01 T02670157  RH  051%=      5-min Rain = 0
KVA1 200932Z 18005KT 27/16 A3009 RMK A01 T02660157  RH  051%=      5-min Rain = 0
KVA1 200933Z 18005KT 27/16 A3009 RMK A01 T02660157  RH  051%=      5-min Rain = 0
KVA1 200934Z 18004KT 27/16 A3009 RMK A01 T02660157  RH  051%=      5-min Rain = 0
KVA1 200935Z 19004KT 27/16 A3009 RMK A01 T02660157  RH  051%=      5-min Rain = 0
KVA1 200936Z 19004KT 27/16 A3009 RMK A01 T02660157  RH  051%=      5-min Rain = 0
KVA1 200937Z 18003KT 27/16 A3009 RMK A01 T02660157  RH  051%=      5-min Rain = 0
KVA1 200938Z 20002KT 27/16 A3009 RMK A01 T02660158  RH  051%=      5-min Rain = 0
KVA1 200939Z 22001KT 27/16 A3009 RMK A01 T02660157  RH  051%=      5-min Rain = 0
KVA1 200940Z 21003KT 27/16 A3009 RMK A01 T02650157  RH  051%=      5-min Rain = 0
KVA1 200941Z 25003KT 27/16 A3009 RMK A01 T02650157  RH  051%=      5-min Rain = 0
KVA1 200942Z 24002KT 27/16 A3009 RMK A01 T02650157  RH  052%=      5-min Rain = 0
KVA1 200943Z 24002KT 26/16 A3009 RMK A01 T02640157  RH  052%=      5-min Rain = 0
KVA1 200944Z 20002KT 26/16 A3009 RMK A01 T02640157  RH  052%=      5-min Rain = 0
KVA1 200945Z 22003KT 26/16 A3009 RMK A01 T02640158  RH  052%=      5-min Rain = 0
KVA1 200946Z 19002KT 26/16 A3009 RMK A01 T02640158  RH  052%=      5-min Rain = 0
KVA1 200947Z 19002KT 26/16 A3009 RMK A01 T02640158  RH  052%=      5-min Rain = 0
KVA1 200948Z 24001KT 27/16 A3009 RMK A01 T02650158  RH  052%=      5-min Rain = 0
KVA1 200949Z 24003KT 26/16 A3009 RMK A01 T02640158  RH  052%=      5-min Rain = 0
KVA1 200950Z 22003KT 26/16 A3009 RMK A01 T02630158  RH  052%=      5-min Rain = 0
KVA1 200951Z 21003KT 26/16 A3009 RMK A01 T02620158  RH  052%=      5-min Rain = 0
KVA1 200952Z 20003KT 26/16 A3009 RMK A01 T02620158  RH  053%=      5-min Rain = 0
KVA1 200953Z 18005KT 26/16 A3009 RMK A01 T02620158  RH  053%=      5-min Rain = 0
KVA1 200954Z 19004KT 26/16 A3009 RMK A01 T02620158  RH  053%=      5-min Rain = 0
KVA1 200955Z 19006KT 26/16 A3009 RMK A01 T02620158  RH  053%=      5-min Rain = 0
KVA1 200956Z 20006KT 26/16 A3009 RMK A01 T02620158  RH  053%=      5-min Rain = 0
KVA1 200957Z 20006KT 26/16 A3009 RMK A01 T02620157  RH  053%=      5-min Rain = 0
KVA1 200958Z 20005KT 26/16 A3009 RMK A01 T02620158  RH  053%=      5-min Rain = 0
KVA1 200959Z 21005KT 26/16 A3009 RMK A01 T02620158  RH  053%=      5-min Rain = 0
KVA1 201000Z 20005KT 26/16 A3009 RMK A01 T02620158  RH  053%=      5-min Rain = 0
KVA1 201001Z 21004KT 26/16 A3009 RMK A01 T02620158  RH  053%=      5-min Rain = 0
KVA1 201002Z 21004KT 26/16 A3009 RMK A01 T02610158  RH  053%=      5-min Rain = 0
KVA1 201003Z 20004KT 26/16 A3009 RMK A01 T02600158  RH  053%=      5-min Rain = 0
KVA1 201004Z 19006KT 26/16 A3009 RMK A01 T02590158  RH  053%=      5-min Rain = 0
KVA1 201005Z 20004KT 26/16 A3009 RMK A01 T02590158  RH  053%=      5-min Rain = 0
KVA1 201006Z 22004KT 26/16 A3009 RMK A01 T02590158  RH  053%=      5-min Rain = 0
KVA1 201007Z 20005KT 26/16 A3009 RMK A01 T02590157  RH  053%=      5-min Rain = 0
KVA1 201008Z 20005KT 26/16 A3009 RMK A01 T02590157  RH  053%=      5-min Rain = 0
KVA1 201009Z 20004KT 26/16 A3009 RMK A01 T02590157  RH  053%=      5-min Rain = 0
KVA1 201010Z 21007KT 26/16 A3009 RMK A01 T02580157  RH  054%=      5-min Rain = 0
KVA1 201011Z 20006KT 26/16 A3009 RMK A01 T02580158  RH  054%=      5-min Rain = 0
KVA1 201012Z 20006KT 26/16 A3009 RMK A01 T02590157  RH  054%=      5-min Rain = 0
KVA1 201013Z 21005KT 26/16 A3009 RMK A01 T02590157  RH  053%=      5-min Rain = 0
KVA1 201014Z 21005KT 26/16 A3009 RMK A01 T02590157  RH  054%=      5-min Rain = 0
KVA1 201015Z 21006KT 26/16 A3009 RMK A01 T02570157  RH  054%=      5-min Rain = 0
KVA1 201016Z 21006KT 26/16 A3009 RMK A01 T02570158  RH  054%=      5-min Rain = 0
KVA1 201017Z 22006KT 26/16 A3009 RMK A01 T02570157  RH  054%=      5-min Rain = 0
KVA1 201018Z 22007KT 26/16 A3009 RMK A01 T02570157  RH  054%=      5-min Rain = 0
KVA1 201019Z 21007KT 26/16 A3009 RMK A01 T02570158  RH  054%=      5-min Rain = 0
KVA1 201020Z 21007KT 26/16 A3009 RMK A01 T02570158  RH  054%=      5-min Rain = 0
KVA1 201021Z 21007KT 26/16 A3009 RMK A01 T02570158  RH  054%=      5-min Rain = 0
KVA1 201022Z 22007KT 26/16 A3009 RMK A01 T02560158  RH  054%=      5-min Rain = 0
KVA1 201023Z 21007KT 26/16 A3009 RMK A01 T02560158  RH  055%=      5-min Rain = 0
KVA1 201024Z 22007KT 26/16 A3009 RMK A01 T02560158  RH  055%=      5-min Rain = 0
KVA1 201025Z 22007KT 26/16 A3009 RMK A01 T02560158  RH  055%=      5-min Rain = 0
KVA1 201026Z 21008KT 26/16 A3009 RMK A01 T02560158  RH  055%=      5-min Rain = 0
KVA1 201027Z 21007KT 26/16 A3009 RMK A01 T02550158  RH  055%=      5-min Rain = 0
KVA1 201028Z 22007KT 26/16 A3009 RMK A01 T02550158  RH  055%=      5-min Rain = 0
KVA1 201029Z 22007KT 26/16 A3009 RMK A01 T02550158  RH  055%=      5-min Rain = 0
KVA1 201030Z 21008KT 25/16 A3009 RMK A01 T02540158  RH  055%=      5-min Rain = 0
KVA1 201031Z 21008KT 25/16 A301 RMK A01 T02540158  RH  055%=      5-min Rain = 0
KVA1 201032Z 22006KT 25/16 A301 RMK A01 T02540158  RH  055%=      5-min Rain = 0
KVA1 201033Z 22006KT 25/16 A301 RMK A01 T02540157  RH  055%=      5-min Rain = 0
KVA1 201034Z 23006KT 25/16 A301 RMK A01 T02540158  RH  055%=      5-min Rain = 0
KVA1 201035Z 23006KT 25/16 A301 RMK A01 T02520157  RH  055%=      5-min Rain = 0
KVA1 201036Z 23005KT 25/16 A301 RMK A01 T02520157  RH  056%=      5-min Rain = 0
KVA1 201037Z 24006KT 25/16 A301 RMK A01 T02510157  RH  056%=      5-min Rain = 0
KVA1 201038Z 23006KT 25/16 A301 RMK A01 T02510157  RH  056%=      5-min Rain = 0
KVA1 201039Z 23006KT 25/16 A301 RMK A01 T02510157  RH  056%=      5-min Rain = 0
KVA1 201040Z 23006KT 25/16 A301 RMK A01 T02500157  RH  056%=      5-min Rain = 0
KVA1 201041Z 23005KT 25/16 A301 RMK A01 T02500157  RH  056%=      5-min Rain = 0
KVA1 201042Z 23005KT 25/16 A301 RMK A01 T02500157  RH  056%=      5-min Rain = 0
KVA1 201043Z 23005KT 25/16 A301 RMK A01 T02500157  RH  056%=      5-min Rain = 0
KVA1 201044Z 22004KT 25/16 A301 RMK A01 T02500157  RH  056%=      5-min Rain = 0
KVA1 201045Z 23006KT 25/16 A301 RMK A01 T02500158  RH  056%=      5-min Rain = 0
KVA1 201046Z 22007KT 25/16 A301 RMK A01 T02500158  RH  057%=      5-min Rain = 0
KVA1 201047Z 22007KT 25/16 A301 RMK A01 T02500158  RH  056%=      5-min Rain = 0
KVA1 201048Z 20006KT 25/16 A301 RMK A01 T02500157  RH  056%=      5-min Rain = 0
KVA1 201049Z 21007KT 25/16 A301 RMK A01 T02500157  RH  056%=      5-min Rain = 0
KVA1 201050Z 21007KT 25/16 A301 RMK A01 T02510158  RH  056%=      5-min Rain = 0
KVA1 201051Z 21006KT 25/16 A301 RMK A01 T02510157  RH  056%=      5-min Rain = 0
KVA1 201052Z 22006KT 25/16 A301 RMK A01 T02510158  RH  056%=      5-min Rain = 0
KVA1 201053Z 22005KT 25/16 A301 RMK A01 T02510158  RH  056%=      5-min Rain = 0
KVA1 201054Z 23005KT 25/16 A301 RMK A01 T02500158  RH  056%=      5-min Rain = 0
KVA1 201055Z 23005KT 25/16 A301 RMK A01 T02500158  RH  057%=      5-min Rain = 0
KVA1 201056Z 22005KT 25/16 A301 RMK A01 T02490158  RH  057%=      5-min Rain = 0
KVA1 201057Z 22005KT 25/16 A301 RMK A01 T02490157  RH  057%=      5-min Rain = 0
KVA1 201058Z 22006KT 25/16 A301 RMK A01 T02480158  RH  057%=      5-min Rain = 0
KVA1 201059Z 22006KT 25/16 A301 RMK A01 T02480158  RH  057%=      5-min Rain = 0
KVA1 201100Z 23005KT 25/16 A301 RMK A01 T02480157  RH  057%=      5-min Rain = 0
KVA1 201101Z 23005KT 25/16 A301 RMK A01 T02480157  RH  057%=      5-min Rain = 0
KVA1 201102Z 23005KT 25/16 A301 RMK A01 T02470157  RH  057%=      5-min Rain = 0
KVA1 201103Z 23005KT 25/16 A301 RMK A01 T02460157  RH  058%=      5-min Rain = 0
KVA1 201104Z 24005KT 25/16 A301 RMK A01 T02460157  RH  058%=      5-min Rain = 0
KVA1 201105Z 24005KT 25/16 A301 RMK A01 T02450157  RH  058%=      5-min Rain = 0
KVA1 201106Z 23005KT 25/16 A301 RMK A01 T02450157  RH  058%=      5-min Rain = 0
KVA1 201107Z 23005KT 24/16 A301 RMK A01 T02440157  RH  058%=      5-min Rain = 0
KVA1 201108Z 23006KT 24/16 A301 RMK A01 T02440157  RH  058%=      5-min Rain = 0
KVA1 201109Z 23005KT 24/16 A301 RMK A01 T02430157  RH  058%=      5-min Rain = 0
KVA1 201110Z 23005KT 24/16 A301 RMK A01 T02430157  RH  059%=      5-min Rain = 0
KVA1 201111Z 23004KT 24/16 A301 RMK A01 T02430157  RH  059%=      5-min Rain = 0
KVA1 201112Z 23004KT 24/16 A301 RMK A01 T02420157  RH  059%=      5-min Rain = 0
KVA1 201113Z 23005KT 24/16 A301 RMK A01 T02420157  RH  059%=      5-min Rain = 0
KVA1 201114Z 24005KT 24/16 A301 RMK A01 T02420157  RH  059%=      5-min Rain = 0
KVA1 201115Z 23005KT 24/16 A301 RMK A01 T02420157  RH  059%=      5-min Rain = 0
KVA1 201116Z 24005KT 24/16 A301 RMK A01 T02420157  RH  059%=      5-min Rain = 0
KVA1 201117Z 23005KT 24/16 A301 RMK A01 T02420157  RH  059%=      5-min Rain = 0
KVA1 201118Z 23005KT 24/16 A301 RMK A01 T02420157  RH  059%=      5-min Rain = 0
KVA1 201119Z 23005KT 24/16 A301 RMK A01 T02420157  RH  059%=      5-min Rain = 0
KVA1 201120Z 22005KT 24/16 A301 RMK A01 T02420157  RH  059%=      5-min Rain = 0
KVA1 201121Z 22005KT 24/16 A301 RMK A01 T02420157  RH  059%=      5-min Rain = 0
KVA1 201122Z 22006KT 24/16 A301 RMK A01 T02440158  RH  059%=      5-min Rain = 0
KVA1 201123Z 22005KT 24/16 A301 RMK A01 T02440158  RH  058%=      5-min Rain = 0
KVA1 201124Z 22004KT 25/16 A301 RMK A01 T02450157  RH  058%=      5-min Rain = 0
KVA1 201125Z 22005KT 25/16 A301 RMK A01 T02450157  RH  058%=      5-min Rain = 0
KVA1 201126Z 22005KT 25/16 A301 RMK A01 T02450158  RH  058%=      5-min Rain = 0
KVA1 201127Z 23005KT 25/16 A301 RMK A01 T02450158  RH  058%=      5-min Rain = 0
KVA1 201128Z 23005KT 24/16 A301 RMK A01 T02440158  RH  058%=      5-min Rain = 0
KVA1 201129Z 23004KT 24/16 A301 RMK A01 T02440158  RH  059%=      5-min Rain = 0
KVA1 201130Z 23004KT 24/16 A301 RMK A01 T02430157  RH  059%=      5-min Rain = 0
KVA1 201131Z 22005KT 24/16 A301 RMK A01 T02430157  RH  059%=      5-min Rain = 0
KVA1 201132Z 22006KT 24/16 A301 RMK A01 T02430158  RH  059%=      5-min Rain = 0
KVA1 201133Z 22005KT 24/16 A301 RMK A01 T02430157  RH  059%=      5-min Rain = 0
KVA1 201134Z 22004KT 24/16 A301 RMK A01 T02430158  RH  059%=      5-min Rain = 0
KVA1 201135Z 22004KT 24/16 A301 RMK A01 T02430157  RH  059%=      5-min Rain = 0
KVA1 201136Z 22006KT 24/16 A301 RMK A01 T02430157  RH  059%=      5-min Rain = 0
KVA1 201137Z 21006KT 24/16 A301 RMK A01 T02430158  RH  059%=      5-min Rain = 0
KVA1 201138Z 20006KT 24/16 A301 RMK A01 T02430158  RH  059%=      5-min Rain = 0
KVA1 201139Z 21006KT 24/16 A301 RMK A01 T02430157  RH  059%=      5-min Rain = 0
KVA1 201140Z 21007KT 24/16 A301 RMK A01 T02430157  RH  059%=      5-min Rain = 0
KVA1 201141Z 20006KT 24/16 A301 RMK A01 T02430158  RH  059%=      5-min Rain = 0
KVA1 201142Z 21006KT 24/16 A301 RMK A01 T02430157  RH  059%=      5-min Rain = 0
KVA1 201143Z 22005KT 24/16 A301 RMK A01 T02430157  RH  059%=      5-min Rain = 0
KVA1 201144Z 22006KT 24/16 A3011 RMK A01 T02430157  RH  059%=      5-min Rain = 0
KVA1 201145Z 23006KT 24/16 A3011 RMK A01 T02430157  RH  059%=      5-min Rain = 0
KVA1 201146Z 23006KT 24/16 A3011 RMK A01 T02430158  RH  059%=      5-min Rain = 0
KVA1 201147Z 23005KT 24/16 A3011 RMK A01 T02430158  RH  059%=      5-min Rain = 0
KVA1 201148Z 24004KT 24/16 A3011 RMK A01 T02420157  RH  059%=      5-min Rain = 0
KVA1 201149Z 24004KT 24/16 A3011 RMK A01 T02410157  RH  059%=      5-min Rain = 0
KVA1 201150Z 24005KT 24/16 A3011 RMK A01 T02400157  RH  060%=      5-min Rain = 0
KVA1 201151Z 23004KT 24/16 A3011 RMK A01 T02390157  RH  060%=      5-min Rain = 0
KVA1 201152Z 23005KT 24/16 A3011 RMK A01 T02390157  RH  060%=      5-min Rain = 0
KVA1 201153Z 23005KT 24/16 A3011 RMK A01 T02380157  RH  060%=      5-min Rain = 0
KVA1 201154Z 22005KT 24/16 A3011 RMK A01 T02380157  RH  061%=      5-min Rain = 0
KVA1 201155Z 23004KT 24/16 A3011 RMK A01 T02380157  RH  061%=      5-min Rain = 0
KVA1 201156Z 23005KT 24/16 A3011 RMK A01 T02370157  RH  061%=      5-min Rain = 0
KVA1 201157Z 23005KT 24/16 A3011 RMK A01 T02370157  RH  061%=      5-min Rain = 0
KVA1 201158Z 23005KT 24/16 A3011 RMK A01 T02370157  RH  061%=      5-min Rain = 0
KVA1 201159Z 22005KT 24/16 A3011 RMK A01 T02370157  RH  061%=      5-min Rain = 0
KVA1 201200Z 22006KT 24/16 A3011 RMK A01 T02380157  RH  061%=      5-min Rain = 0
KVA1 201201Z 22005KT 24/16 A3011 RMK A01 T02380157  RH  060%=      5-min Rain = 0
KVA1 201202Z 21005KT 24/16 A3011 RMK A01 T02380157  RH  060%=      5-min Rain = 0
KVA1 201203Z 21004KT 24/16 A3011 RMK A01 T02380157  RH  060%=      5-min Rain = 0
KVA1 201204Z 22004KT 24/16 A3011 RMK A01 T02380157  RH  060%=      5-min Rain = 0
KVA1 201205Z 16003KT 24/16 A3011 RMK A01 T02380157  RH  060%=      5-min Rain = 0
KVA1 201206Z 15003KT 24/16 A3011 RMK A01 T02380157  RH  060%=      5-min Rain = 0
KVA1 201207Z 20004KT 24/16 A3011 RMK A01 T02380157  RH  060%=      5-min Rain = 0
KVA1 201208Z 20004KT 24/16 A3011 RMK A01 T02370157  RH  061%=      5-min Rain = 0
KVA1 201209Z 19003KT 24/16 A3011 RMK A01 T02380157  RH  060%=      5-min Rain = 0
KVA1 201210Z 20002KT 24/16 A3011 RMK A01 T02390157  RH  060%=      5-min Rain = 0
KVA1 201211Z 21003KT 24/16 A3011 RMK A01 T02390157  RH  060%=      5-min Rain = 0
KVA1 201212Z 23001KT 24/16 A3011 RMK A01 T02390157  RH  060%=      5-min Rain = 0
KVA1 201213Z 22002KT 24/16 A3011 RMK A01 T02390157  RH  060%=      5-min Rain = 0
KVA1 201214Z 23002KT 24/16 A3011 RMK A01 T02390157  RH  060%=      5-min Rain = 0
KVA1 201215Z 24003KT 24/16 A3011 RMK A01 T02380157  RH  060%=      5-min Rain = 0
KVA1 201216Z 24003KT 24/16 A3011 RMK A01 T02380157  RH  061%=      5-min Rain = 0
KVA1 201217Z 24003KT 24/16 A3011 RMK A01 T02370157  RH  061%=      5-min Rain = 0
KVA1 201218Z 24003KT 24/16 A3011 RMK A01 T02350156  RH  061%=      5-min Rain = 0
KVA1 201219Z 24004KT 24/16 A3011 RMK A01 T02350157  RH  061%=      5-min Rain = 0
KVA1 201220Z 24004KT 23/16 A3011 RMK A01 T02340156  RH  062%=      5-min Rain = 0
KVA1 201221Z 24005KT 23/16 A3011 RMK A01 T02330157  RH  062%=      5-min Rain = 0
KVA1 201222Z 23005KT 23/16 A3011 RMK A01 T02330157  RH  062%=      5-min Rain = 0
KVA1 201223Z 23005KT 23/16 A3011 RMK A01 T02330157  RH  062%=      5-min Rain = 0
KVA1 201224Z 24004KT 23/16 A3011 RMK A01 T02330157  RH  062%=      5-min Rain = 0
KVA1 201225Z 24005KT 23/16 A3011 RMK A01 T02330157  RH  062%=      5-min Rain = 0
KVA1 201226Z 24004KT 23/16 A3011 RMK A01 T02320157  RH  062%=      5-min Rain = 0
KVA1 201227Z 24005KT 23/16 A3011 RMK A01 T02330157  RH  063%=      5-min Rain = 0
KVA1 201228Z 24005KT 23/16 A3011 RMK A01 T02320157  RH  063%=      5-min Rain = 0
KVA1 201229Z 24005KT 23/16 A3011 RMK A01 T02320157  RH  063%=      5-min Rain = 0
KVA1 201230Z 24005KT 23/16 A3012 RMK A01 T02320157  RH  063%=      5-min Rain = 0
KVA1 201231Z 24005KT 23/16 A3012 RMK A01 T02320157  RH  063%=      5-min Rain = 0
KVA1 201232Z 25004KT 23/16 A3012 RMK A01 T02310157  RH  063%=      5-min Rain = 0
KVA1 201233Z 25004KT 23/16 A3012 RMK A01 T02300157  RH  063%=      5-min Rain = 0
KVA1 201234Z 25003KT 23/16 A3012 RMK A01 T02300157  RH  063%=      5-min Rain = 0
KVA1 201235Z 25003KT 23/16 A3012 RMK A01 T02300157  RH  063%=      5-min Rain = 0
KVA1 201236Z 25003KT 23/16 A3012 RMK A01 T02300157  RH  063%=      5-min Rain = 0
KVA1 201237Z 24003KT 23/16 A3012 RMK A01 T02300157  RH  063%=      5-min Rain = 0
KVA1 201238Z 24003KT 23/16 A3012 RMK A01 T02300157  RH  063%=      5-min Rain = 0
KVA1 201239Z 24003KT 23/16 A3012 RMK A01 T02300157  RH  063%=      5-min Rain = 0
KVA1 201240Z 24002KT 23/16 A3012 RMK A01 T02310157  RH  063%=      5-min Rain = 0
KVA1 201241Z 24004KT 23/16 A3012 RMK A01 T02300157  RH  063%=      5-min Rain = 0
KVA1 201242Z 24004KT 23/16 A3012 RMK A01 T02310157  RH  063%=      5-min Rain = 0
KVA1 201243Z 25003KT 23/16 A3012 RMK A01 T02310157  RH  063%=      5-min Rain = 0
KVA1 201244Z 24003KT 23/16 A3012 RMK A01 T02310157  RH  063%=      5-min Rain = 0
KVA1 201245Z 24005KT 23/16 A3012 RMK A01 T02310157  RH  063%=      5-min Rain = 0
KVA1 201246Z 25004KT 23/16 A3012 RMK A01 T02310157  RH  063%=      5-min Rain = 0
KVA1 201247Z 25005KT 23/16 A3012 RMK A01 T02310157  RH  063%=      5-min Rain = 0
KVA1 201248Z 24005KT 23/16 A3012 RMK A01 T02320157  RH  063%=      5-min Rain = 0
KVA1 201249Z 24004KT 23/16 A3012 RMK A01 T02320157  RH  063%=      5-min Rain = 0
KVA1 201250Z 25004KT 23/16 A3012 RMK A01 T02320157  RH  063%=      5-min Rain = 0
KVA1 201251Z 25004KT 23/16 A3013 RMK A01 T02330158  RH  063%=      5-min Rain = 0
KVA1 201252Z 25004KT 23/16 A3013 RMK A01 T02330157  RH  062%=      5-min Rain = 0
KVA1 201253Z 25005KT 23/16 A3013 RMK A01 T02340158  RH  062%=      5-min Rain = 0
KVA1 201254Z 25005KT 23/16 A3013 RMK A01 T02340158  RH  062%=      5-min Rain = 0
KVA1 201255Z 24006KT 23/16 A3013 RMK A01 T02340158  RH  062%=      5-min Rain = 0
KVA1 201256Z 24005KT 24/16 A3013 RMK A01 T02350158  RH  062%=      5-min Rain = 0
KVA1 201257Z 25005KT 24/16 A3013 RMK A01 T02350158  RH  062%=      5-min Rain = 0
KVA1 201258Z 25005KT 24/16 A3013 RMK A01 T02360158  RH  061%=      5-min Rain = 0
KVA1 201259Z 24005KT 24/16 A3013 RMK A01 T02370158  RH  061%=      5-min Rain = 0
KVA1 201300Z 25005KT 24/16 A3013 RMK A01 T02370158  RH  061%=      5-min Rain = 0
KVA1 201301Z 25005KT 24/16 A3013 RMK A01 T02370158  RH  061%=      5-min Rain = 0
KVA1 201302Z 25004KT 24/16 A3013 RMK A01 T02370158  RH  061%=      5-min Rain = 0
KVA1 201303Z 24005KT 24/16 A3013 RMK A01 T02380158  RH  061%=      5-min Rain = 0
KVA1 201304Z 25005KT 24/16 A3013 RMK A01 T02380159  RH  061%=      5-min Rain = 0
KVA1 201305Z 25004KT 24/16 A3013 RMK A01 T02390159  RH  061%=      5-min Rain = 0
KVA1 201306Z 24004KT 24/16 A3013 RMK A01 T02390159  RH  061%=      5-min Rain = 0
KVA1 201307Z 25003KT 24/16 A3013 RMK A01 T02400159  RH  061%=      5-min Rain = 0
KVA1 201308Z 24004KT 24/16 A3013 RMK A01 T02400159  RH  060%=      5-min Rain = 0
KVA1 201309Z 24004KT 24/16 A3013 RMK A01 T02410159  RH  060%=      5-min Rain = 0
KVA1 201310Z 25003KT 24/16 A3013 RMK A01 T02410159  RH  060%=      5-min Rain = 0
KVA1 201311Z 25004KT 24/16 A3013 RMK A01 T02420159  RH  060%=      5-min Rain = 0
KVA1 201312Z 25004KT 24/16 A3013 RMK A01 T02420159  RH  060%=      5-min Rain = 0
KVA1 201313Z 25004KT 24/16 A3013 RMK A01 T02420159  RH  060%=      5-min Rain = 0
KVA1 201314Z 24004KT 24/16 A3014 RMK A01 T02430159  RH  059%=      5-min Rain = 0
KVA1 201315Z 24004KT 24/16 A3014 RMK A01 T02440159  RH  059%=      5-min Rain = 0
KVA1 201316Z 25004KT 24/16 A3014 RMK A01 T02440159  RH  059%=      5-min Rain = 0
KVA1 201317Z 25005KT 25/16 A3014 RMK A01 T02450159  RH  059%=      5-min Rain = 0
KVA1 201318Z 25004KT 24/16 A3014 RMK A01 T02440159  RH  059%=      5-min Rain = 0
KVA1 201319Z 25004KT 25/16 A3014 RMK A01 T02450159  RH  059%=      5-min Rain = 0
KVA1 201320Z 25004KT 25/16 A3014 RMK A01 T02450159  RH  059%=      5-min Rain = 0
KVA1 201321Z 25003KT 25/16 A3014 RMK A01 T02460159  RH  058%=      5-min Rain = 0
KVA1 201322Z 25004KT 25/16 A3014 RMK A01 T02460159  RH  058%=      5-min Rain = 0
KVA1 201323Z 25004KT 25/16 A3014 RMK A01 T02470160  RH  058%=      5-min Rain = 0
KVA1 201324Z 24005KT 25/16 A3014 RMK A01 T02480160  RH  058%=      5-min Rain = 0
KVA1 201325Z 25005KT 25/16 A3014 RMK A01 T02480159  RH  058%=      5-min Rain = 0
KVA1 201326Z 25004KT 25/16 A3014 RMK A01 T02490159  RH  057%=      5-min Rain = 0
KVA1 201327Z 24004KT 25/16 A3014 RMK A01 T02490160  RH  058%=      5-min Rain = 0
KVA1 201328Z 24005KT 25/16 A3014 RMK A01 T02500160  RH  057%=      5-min Rain = 0
KVA1 201329Z 24005KT 25/16 A3014 RMK A01 T02490159  RH  057%=      5-min Rain = 0
KVA1 201330Z 23005KT 25/16 A3014 RMK A01 T02500159  RH  057%=      5-min Rain = 0
KVA1 201331Z 23005KT 25/16 A3014 RMK A01 T02500160  RH  057%=      5-min Rain = 0
KVA1 201332Z 23005KT 25/16 A3014 RMK A01 T02510160  RH  057%=      5-min Rain = 0
KVA1 201333Z 23005KT 25/16 A3014 RMK A01 T02510160  RH  057%=      5-min Rain = 0
KVA1 201334Z 22005KT 25/16 A3014 RMK A01 T02510159  RH  057%=      5-min Rain = 0
KVA1 201335Z 23005KT 25/16 A3014 RMK A01 T02510160  RH  057%=      5-min Rain = 0
KVA1 201336Z 23004KT 25/16 A3014 RMK A01 T02520160  RH  057%=      5-min Rain = 0
KVA1 201337Z 24004KT 25/16 A3014 RMK A01 T02530161  RH  057%=      5-min Rain = 0
KVA1 201338Z 23005KT 25/16 A3014 RMK A01 T02540160  RH  056%=      5-min Rain = 0
KVA1 201339Z 22005KT 25/16 A3014 RMK A01 T02540160  RH  056%=      5-min Rain = 0
KVA1 201340Z 23005KT 25/16 A3014 RMK A01 T02540160  RH  056%=      5-min Rain = 0
KVA1 201341Z 23005KT 26/16 A3014 RMK A01 T02550160  RH  056%=      5-min Rain = 0
KVA1 201342Z 23005KT 26/16 A3014 RMK A01 T02550160  RH  056%=      5-min Rain = 0
KVA1 201343Z 22005KT 26/16 A3014 RMK A01 T02560161  RH  056%=      5-min Rain = 0
KVA1 201344Z 22005KT 26/16 A3014 RMK A01 T02560160  RH  055%=      5-min Rain = 0
KVA1 201345Z 23006KT 26/16 A3014 RMK A01 T02560160  RH  055%=      5-min Rain = 0
KVA1 201346Z 22005KT 26/16 A3014 RMK A01 T02560160  RH  055%=      5-min Rain = 0
KVA1 201347Z 22007KT 26/16 A3014 RMK A01 T02560159  RH  055%=      5-min Rain = 0
KVA1 201348Z 22006KT 26/16 A3014 RMK A01 T02560159  RH  055%=      5-min Rain = 0
KVA1 201349Z 22004KT 26/16 A3014 RMK A01 T02570160  RH  055%=      5-min Rain = 0
KVA1 201350Z 21004KT 26/16 A3014 RMK A01 T02580161  RH  055%=      5-min Rain = 0
KVA1 201351Z 22005KT 26/16 A3014 RMK A01 T02590160  RH  054%=      5-min Rain = 0
KVA1 201352Z 21004KT 26/16 A3014 RMK A01 T02590160  RH  054%=      5-min Rain = 0
KVA1 201353Z 22004KT 26/16 A3014 RMK A01 T02590161  RH  054%=      5-min Rain = 0
KVA1 201354Z 21004KT 26/16 A3014 RMK A01 T02600161  RH  054%=      5-min Rain = 0
KVA1 201355Z 21005KT 26/16 A3014 RMK A01 T02610160  RH  054%=      5-min Rain = 0
KVA1 201356Z 21004KT 26/16 A3015 RMK A01 T02610160  RH  054%=      5-min Rain = 0
KVA1 201357Z 22004KT 26/16 A3015 RMK A01 T02600161  RH  054%=      5-min Rain = 0
KVA1 201358Z 22005KT 26/16 A3015 RMK A01 T02610160  RH  054%=      5-min Rain = 0
KVA1 201359Z 22006KT 26/16 A3015 RMK A01 T02620160  RH  053%=      5-min Rain = 0
KVA1 201400Z 21005KT 26/16 A3015 RMK A01 T02610160  RH  053%=      5-min Rain = 0
KVA1 201401Z 21004KT 26/16 A3015 RMK A01 T02620161  RH  054%=      5-min Rain = 0
KVA1 201402Z 21005KT 26/16 A3015 RMK A01 T02620160  RH  053%=      5-min Rain = 0
KVA1 201403Z 21005KT 26/16 A3015 RMK A01 T02630159  RH  053%=      5-min Rain = 0
KVA1 201404Z 20004KT 26/16 A3015 RMK A01 T02630160  RH  053%=      5-min Rain = 0
KVA1 201405Z 21005KT 26/16 A3015 RMK A01 T02640160  RH  053%=      5-min Rain = 0
KVA1 201406Z 20005KT 26/16 A3015 RMK A01 T02640160  RH  053%=      5-min Rain = 0
KVA1 201407Z 19005KT 26/16 A3015 RMK A01 T02640159  RH  052%=      5-min Rain = 0
KVA1 201408Z 19005KT 27/16 A3015 RMK A01 T02650160  RH  053%=      5-min Rain = 0
KVA1 201409Z 20007KT 27/16 A3015 RMK A01 T02650159  RH  052%=      5-min Rain = 0
KVA1 201410Z 20006KT 27/16 A3015 RMK A01 T02660160  RH  052%=      5-min Rain = 0
KVA1 201411Z 18007KT 27/16 A3015 RMK A01 T02660159  RH  052%=      5-min Rain = 0
KVA1 201412Z 19007KT 27/16 A3015 RMK A01 T02660158  RH  052%=      5-min Rain = 0
KVA1 201413Z 20008KT 27/16 A3015 RMK A01 T02670159  RH  052%=      5-min Rain = 0
KVA1 201414Z 20007KT 27/16 A3015 RMK A01 T02670159  RH  052%=      5-min Rain = 0
KVA1 201415Z 19005KT 27/16 A3015 RMK A01 T02680160  RH  052%=      5-min Rain = 0
KVA1 201416Z 18006KT 27/16 A3015 RMK A01 T02680159  RH  051%=      5-min Rain = 0
KVA1 201417Z 19005KT 27/16 A3015 RMK A01 T02680159  RH  051%=      5-min Rain = 0
KVA1 201418Z 18006KT 27/16 A3015 RMK A01 T02690159  RH  051%=      5-min Rain = 0
KVA1 201419Z 18007KT 27/16 A3015 RMK A01 T02700159  RH  051%=      5-min Rain = 0
KVA1 201420Z 19005KT 27/16 A3015 RMK A01 T02700159  RH  051%=      5-min Rain = 0
KVA1 201421Z 16006KT 27/16 A3015 RMK A01 T02700160  RH  051%=      5-min Rain = 0
KVA1 201422Z 18006KT 27/16 A3015 RMK A01 T02710160  RH  051%=      5-min Rain = 0
KVA1 201423Z 19005KT 27/16 A3015 RMK A01 T02720160  RH  050%=      5-min Rain = 0
KVA1 201424Z 20006KT 27/16 A3015 RMK A01 T02730160  RH  050%=      5-min Rain = 0
KVA1 201425Z 21006KT 27/16 A3015 RMK A01 T02720159  RH  050%=      5-min Rain = 0
KVA1 201426Z 18007KT 27/16 A3015 RMK A01 T02730160  RH  050%=      5-min Rain = 0
KVA1 201427Z 20006KT 27/16 A3015 RMK A01 T02740160  RH  050%=      5-min Rain = 0
KVA1 201428Z 19005KT 27/16 A3015 RMK A01 T02740160  RH  050%=      5-min Rain = 0
KVA1 201429Z 18007KT 28/16 A3015 RMK A01 T02750160  RH  049%=      5-min Rain = 0
KVA1 201430Z 20006KT 28/16 A3015 RMK A01 T02750159  RH  049%=      5-min Rain = 0
KVA1 201431Z 18005KT 28/16 A3015 RMK A01 T02750161  RH  050%=      5-min Rain = 0
KVA1 201432Z 18005KT 28/16 A3015 RMK A01 T02750160  RH  049%=      5-min Rain = 0
KVA1 201433Z 19008KT 28/16 A3015 RMK A01 T02760160  RH  049%=      5-min Rain = 0
KVA1 201434Z 19007KT 28/16 A3015 RMK A01 T02780159  RH  048%=      5-min Rain = 0
KVA1 201435Z 18008KT 28/16 A3015 RMK A01 T02780160  RH  049%=      5-min Rain = 0
KVA1 201436Z 18007KT 28/16 A3015 RMK A01 T02780159  RH  048%=      5-min Rain = 0
KVA1 201437Z 17007KT 28/16 A3015 RMK A01 T02800159  RH  048%=      5-min Rain = 0
KVA1 201438Z 19007KT 28/16 A3015 RMK A01 T02810160  RH  048%=      5-min Rain = 0
KVA1 201439Z 18007KT 28/16 A3015 RMK A01 T02810160  RH  048%=      5-min Rain = 0
KVA1 201440Z 18009KT 28/16 A3014 RMK A01 T02810160  RH  048%=      5-min Rain = 0
KVA1 201441Z 18009KT 28/16 A3015 RMK A01 T02810160  RH  048%=      5-min Rain = 0
KVA1 201442Z 18008KT 28/16 A3015 RMK A01 T02810159  RH  047%=      5-min Rain = 0
KVA1 201443Z 16006KT 28/16 A3015 RMK A01 T02800160  RH  048%=      5-min Rain = 0
KVA1 201444Z 17006KT 28/16 A3015 RMK A01 T02810160  RH  048%=      5-min Rain = 0
KVA1 201445Z 17007KT 28/16 A3015 RMK A01 T02830160  RH  047%=      5-min Rain = 0
KVA1 201446Z 17008KT 28/16 A3015 RMK A01 T02840160  RH  047%=      5-min Rain = 0
KVA1 201447Z 17007KT 29/16 A3015 RMK A01 T02850160  RH  047%=      5-min Rain = 0
KVA1 201448Z 17009KT 29/16 A3015 RMK A01 T02870160  RH  046%=      5-min Rain = 0
KVA1 201449Z 17008KT 29/16 A3015 RMK A01 T02870160  RH  046%=      5-min Rain = 0
KVA1 201450Z 18007KT 29/16 A3015 RMK A01 T02860159  RH  046%=      5-min Rain = 0
KVA1 201451Z 18008KT 28/16 A3015 RMK A01 T02840160  RH  047%=      5-min Rain = 0
KVA1 201452Z 18008KT 28/16 A3015 RMK A01 T02830160  RH  047%=      5-min Rain = 0
KVA1 201453Z 18009KT 28/16 A3015 RMK A01 T02840160  RH  047%=      5-min Rain = 0
KVA1 201454Z 17007KT 29/16 A3015 RMK A01 T02850160  RH  047%=      5-min Rain = 0
KVA1 201455Z 18008KT 29/16 A3015 RMK A01 T02870160  RH  046%=      5-min Rain = 0
KVA1 201456Z 17006KT 29/16 A3015 RMK A01 T02870160  RH  046%=      5-min Rain = 0
KVA1 201457Z 18008KT 29/16 A3015 RMK A01 T02870160  RH  046%=      5-min Rain = 0
KVA1 201458Z 18010KT 29/16 A3015 RMK A01 T02870160  RH  046%=      5-min Rain = 0
KVA1 201459Z 17010KT 29/16 A3015 RMK A01 T02860159  RH  046%=      5-min Rain = 0
KVA1 201500Z 17009KT 29/16 A3015 RMK A01 T02860159  RH  046%=      5-min Rain = 0
KVA1 201501Z 18007KT 29/16 A3015 RMK A01 T02860159  RH  046%=      5-min Rain = 0
KVA1 201502Z 18008KT 29/16 A3015 RMK A01 T02860159  RH  046%=      5-min Rain = 0
KVA1 201503Z 16008KT 29/16 A3015 RMK A01 T02870159  RH  046%=      5-min Rain = 0
KVA1 201504Z 16007KT 29/16 A3015 RMK A01 T02880160  RH  046%=      5-min Rain = 0
KVA1 201505Z 15008KT 29/16 A3015 RMK A01 T02900160  RH  045%=      5-min Rain = 0
KVA1 201506Z 16007KT 29/16 A3015 RMK A01 T02910159  RH  045%=      5-min Rain = 0
KVA1 201507Z 18007KT 29/16 A3015 RMK A01 T02910160  RH  045%=      5-min Rain = 0
KVA1 201508Z 18007KT 29/16 A3015 RMK A01 T02910160  RH  045%=      5-min Rain = 0
KVA1 201509Z 15007KT 29/16 A3015 RMK A01 T02900160  RH  045%=      5-min Rain = 0
KVA1 201510Z 16007KT 29/16 A3015 RMK A01 T02910159  RH  045%=      5-min Rain = 0
KVA1 201511Z 17007KT 29/16 A3015 RMK A01 T02910159  RH  045%=      5-min Rain = 0
KVA1 201512Z 16007KT 29/16 A3015 RMK A01 T02910159  RH  045%=      5-min Rain = 0
KVA1 201513Z 15006KT 29/16 A3015 RMK A01 T02920159  RH  045%=      5-min Rain = 0
KVA1 201514Z 17005KT 29/16 A3015 RMK A01 T02930159  RH  044%=      5-min Rain = 0
KVA1 201515Z 16007KT 29/16 A3015 RMK A01 T02940159  RH  044%=      5-min Rain = 0
KVA1 201516Z 16007KT 29/16 A3015 RMK A01 T02930159  RH  044%=      5-min Rain = 0
KVA1 201517Z 16006KT 29/16 A3015 RMK A01 T02930159  RH  044%=      5-min Rain = 0
KVA1 201518Z 17007KT 29/16 A3015 RMK A01 T02930159  RH  044%=      5-min Rain = 0
KVA1 201519Z 15007KT 29/16 A3015 RMK A01 T02930160  RH  044%=      5-min Rain = 0
KVA1 201520Z 15008KT 29/16 A3015 RMK A01 T02940159  RH  044%=      5-min Rain = 0
KVA1 201521Z 16007KT 30/16 A3015 RMK A01 T02950159  RH  044%=      5-min Rain = 0
KVA1 201522Z 16005KT 30/16 A3015 RMK A01 T02950159  RH  044%=      5-min Rain = 0
KVA1 201523Z 19009KT 30/16 A3015 RMK A01 T02970161  RH  044%=      5-min Rain = 0
KVA1 201524Z 17009KT 30/16 A3015 RMK A01 T02980160  RH  043%=      5-min Rain = 0
KVA1 201525Z 16008KT 30/16 A3015 RMK A01 T02980159  RH  043%=      5-min Rain = 0
KVA1 201526Z 15008KT 30/16 A3015 RMK A01 T02980159  RH  043%=      5-min Rain = 0
KVA1 201527Z 15008KT 30/16 A3015 RMK A01 T02980158  RH  043%=      5-min Rain = 0
KVA1 201528Z 16007KT 30/16 A3015 RMK A01 T02980158  RH  043%=      5-min Rain = 0
KVA1 201529Z 17008KT 30/16 A3015 RMK A01 T02980159  RH  043%=      5-min Rain = 0
KVA1 201530Z 19008KT 30/16 A3015 RMK A01 T02990159  RH  043%=      5-min Rain = 0
KVA1 201531Z 19005KT 30/16 A3015 RMK A01 T02990158  RH  042%=      5-min Rain = 0
KVA1 201532Z 19008KT 30/16 A3015 RMK A01 T02970159  RH  043%=      5-min Rain = 0
KVA1 201533Z 19010KT 30/16 A3015 RMK A01 T02980159  RH  043%=      5-min Rain = 0
KVA1 201534Z 20009KT 30/16 A3015 RMK A01 T02980159  RH  043%=      5-min Rain = 0
KVA1 201535Z 20006KT 30/16 A3015 RMK A01 T02960158  RH  043%=      5-min Rain = 0
KVA1 201536Z 19005KT 30/16 A3015 RMK A01 T02960158  RH  043%=      5-min Rain = 0
KVA1 201537Z 17004KT 30/16 A3015 RMK A01 T02970159  RH  043%=      5-min Rain = 0
KVA1 201538Z 18005G10KT 30/16 A3015 RMK A01 T02990161  RH  043%=      5-min Rain = 0
KVA1 201539Z 18008KT 30/16 A3015 RMK A01 T03020160  RH  042%=      5-min Rain = 0
KVA1 201540Z 17009KT 30/16 A3015 RMK A01 T03030157  RH  041%=      5-min Rain = 0
KVA1 201541Z 17007KT 30/16 A3015 RMK A01 T03010157  RH  042%=      5-min Rain = 0
KVA1 201542Z 17008KT 30/16 A3015 RMK A01 T03020157  RH  042%=      5-min Rain = 0
KVA1 201543Z 18007KT 30/16 A3015 RMK A01 T03010157  RH  042%=      5-min Rain = 0
KVA1 201544Z 17005KT 30/16 A3015 RMK A01 T03000157  RH  042%=      5-min Rain = 0
KVA1 201545Z 16003KT 30/16 A3015 RMK A01 T02980157  RH  042%=      5-min Rain = 0
KVA1 201546Z 17003KT 30/16 A3015 RMK A01 T02980157  RH  042%=      5-min Rain = 0
KVA1 201547Z 18006KT 30/16 A3015 RMK A01 T02990157  RH  042%=      5-min Rain = 0
KVA1 201548Z 18008KT 30/16 A3015 RMK A01 T03000157  RH  042%=      5-min Rain = 0
KVA1 201549Z 18008KT 30/16 A3015 RMK A01 T03010157  RH  042%=      5-min Rain = 0
KVA1 201550Z 18006KT 30/16 A3015 RMK A01 T03030156  RH  041%=      5-min Rain = 0
KVA1 201551Z 18005KT 30/16 A3015 RMK A01 T03020157  RH  042%=      5-min Rain = 0
KVA1 201552Z 17006KT 30/16 A3015 RMK A01 T03020158  RH  042%=      5-min Rain = 0
KVA1 201553Z 16008KT 31/16 A3015 RMK A01 T03050157  RH  041%=      5-min Rain = 0
KVA1 201554Z 14007KT 31/16 A3015 RMK A01 T03070158  RH  041%=      5-min Rain = 0
KVA1 201555Z 13007KT 31/16 A3015 RMK A01 T03090157  RH  040%=      5-min Rain = 0
KVA1 201556Z 14006KT 31/16 A3015 RMK A01 T03100157  RH  039%=      5-min Rain = 0
KVA1 201557Z 14005KT 31/16 A3015 RMK A01 T03110156  RH  039%=      5-min Rain = 0
KVA1 201558Z 14005KT 31/16 A3015 RMK A01 T03120156  RH  039%=      5-min Rain = 0
KVA1 201559Z 18005KT 31/16 A3015 RMK A01 T03120158  RH  039%=      5-min Rain = 0
KVA1 201600Z 18008KT 31/16 A3015 RMK A01 T03120157  RH  039%=      5-min Rain = 0
KVA1 201601Z 19006KT 31/16 A3015 RMK A01 T03080156  RH  040%=      5-min Rain = 0
KVA1 201602Z 19006KT 31/16 A3015 RMK A01 T03050156  RH  040%=      5-min Rain = 0
KVA1 201603Z 19006KT 31/16 A3015 RMK A01 T03050157  RH  041%=      5-min Rain = 0
KVA1 201604Z 19008KT 30/16 A3015 RMK A01 T03040156  RH  041%=      5-min Rain = 0
KVA1 201605Z 18008KT 31/16 A3015 RMK A01 T03050156  RH  041%=      5-min Rain = 0
KVA1 201606Z 19007KT 31/16 A3015 RMK A01 T03060156  RH  040%=      5-min Rain = 0
KVA1 201607Z 19007KT 31/16 A3015 RMK A01 T03060155  RH  040%=      5-min Rain = 0
KVA1 201608Z 19008KT 31/16 A3015 RMK A01 T03050155  RH  040%=      5-min Rain = 0
KVA1 201609Z 20008KT 31/16 A3015 RMK A01 T03060156  RH  040%=      5-min Rain = 0
KVA1 201610Z 19008KT 31/16 A3015 RMK A01 T03070157  RH  040%=      5-min Rain = 0
KVA1 201611Z 18008KT 31/16 A3015 RMK A01 T03080156  RH  040%=      5-min Rain = 0
KVA1 201612Z 18007KT 31/16 A3015 RMK A01 T03080156  RH  040%=      5-min Rain = 0
KVA1 201613Z 17005KT 31/16 A3015 RMK A01 T03100156  RH  039%=      5-min Rain = 0
KVA1 201614Z 15007KT 31/16 A3015 RMK A01 T03090156  RH  040%=      5-min Rain = 0
KVA1 201615Z 19006KT 31/16 A3015 RMK A01 T03090156  RH  039%=      5-min Rain = 0
KVA1 201616Z 19005KT 31/16 A3015 RMK A01 T03100156  RH  039%=      5-min Rain = 0
KVA1 201617Z 18006KT 31/16 A3015 RMK A01 T03110157  RH  039%=      5-min Rain = 0
KVA1 201618Z 16006KT 31/15 A3015 RMK A01 T03120154  RH  039%=      5-min Rain = 0
KVA1 201619Z 17005KT 31/16 A3015 RMK A01 T03130155  RH  039%=      5-min Rain = 0
KVA1 201620Z 18008KT 32/16 A3015 RMK A01 T03160156  RH  038%=      5-min Rain = 0
KVA1 201621Z 17007KT 32/16 A3015 RMK A01 T03160155  RH  038%=      5-min Rain = 0
KVA1 201622Z 17007KT 31/16 A3015 RMK A01 T03130155  RH  038%=      5-min Rain = 0
KVA1 201623Z 15008KT 31/16 A3015 RMK A01 T03110155  RH  039%=      5-min Rain = 0
KVA1 201624Z 14006KT 31/16 A3015 RMK A01 T03120155  RH  039%=      5-min Rain = 0
KVA1 201625Z 14005KT 31/16 A3015 RMK A01 T03130155  RH  039%=      5-min Rain = 0
KVA1 201626Z 13004KT 31/15 A3015 RMK A01 T03140154  RH  038%=      5-min Rain = 0
KVA1 201627Z 11003KT 31/15 A3015 RMK A01 T03130154  RH  038%=      5-min Rain = 0
KVA1 201628Z 10003KT 31/15 A3015 RMK A01 T03120152  RH  038%=      5-min Rain = 0
KVA1 201629Z 17004KT 31/15 A3015 RMK A01 T03110154  RH  039%=      5-min Rain = 0
KVA1 201630Z 18005KT 31/15 A3015 RMK A01 T03100154  RH  039%=      5-min Rain = 0
KVA1 201631Z 18007KT 31/16 A3015 RMK A01 T03100155  RH  039%=      5-min Rain = 0
KVA1 201632Z 17007KT 31/15 A3015 RMK A01 T03130154  RH  038%=      5-min Rain = 0
KVA1 201633Z 18004KT 32/15 A3015 RMK A01 T03150153  RH  038%=      5-min Rain = 0
KVA1 201634Z 17003KT 31/15 A3015 RMK A01 T03140153  RH  038%=      5-min Rain = 0
KVA1 201635Z 13005KT 31/15 A3015 RMK A01 T03130153  RH  038%=      5-min Rain = 0
KVA1 201636Z 17002KT 32/15 A3015 RMK A01 T03150152  RH  037%=      5-min Rain = 0
KVA1 201637Z 16006KT 32/15 A3015 RMK A01 T03160153  RH  037%=      5-min Rain = 0
KVA1 201638Z 16006KT 32/15 A3015 RMK A01 T03170154  RH  037%=      5-min Rain = 0
KVA1 201639Z 14004KT 32/15 A3015 RMK A01 T03180153  RH  037%=      5-min Rain = 0
KVA1 201640Z 16005KT 32/15 A3015 RMK A01 T03170154  RH  037%=      5-min Rain = 0
KVA1 201641Z 16006KT 32/15 A3015 RMK A01 T03190154  RH  037%=      5-min Rain = 0
KVA1 201642Z 16008KT 32/15 A3015 RMK A01 T03220153  RH  036%=      5-min Rain = 0
KVA1 201643Z 17005KT 32/15 A3015 RMK A01 T03220153  RH  036%=      5-min Rain = 0
KVA1 201644Z 17006KT 32/15 A3015 RMK A01 T03220153  RH  036%=      5-min Rain = 0
KVA1 201645Z 14004KT 32/15 A3015 RMK A01 T03210153  RH  036%=      5-min Rain = 0
KVA1 201646Z 13003KT 32/15 A3015 RMK A01 T03190153  RH  037%=      5-min Rain = 0
KVA1 201647Z 17002KT 32/15 A3015 RMK A01 T03190151  RH  036%=      5-min Rain = 0
KVA1 201648Z 15002KT 32/15 A3015 RMK A01 T03180151  RH  037%=      5-min Rain = 0
KVA1 201649Z 12005KT 32/15 A3015 RMK A01 T03190152  RH  037%=      5-min Rain = 0
KVA1 201650Z 11002KT 32/15 A3015 RMK A01 T03190150  RH  036%=      5-min Rain = 0
KVA1 201651Z 13005KT 32/15 A3015 RMK A01 T03200152  RH  036%=      5-min Rain = 0
KVA1 201652Z 13004KT 32/15 A3015 RMK A01 T03210151  RH  036%=      5-min Rain = 0
KVA1 201653Z 12005KT 32/15 A3015 RMK A01 T03230151  RH  035%=      5-min Rain = 0
KVA1 201654Z 07003KT 32/15 A3015 RMK A01 T03230152  RH  036%=      5-min Rain = 0
KVA1 201655Z 08005KT 32/15 A3015 RMK A01 T03220153  RH  036%=      5-min Rain = 0
KVA1 201656Z 08004KT 32/15 A3015 RMK A01 T03200153  RH  037%=      5-min Rain = 0
KVA1 201657Z 11003KT 32/15 A3015 RMK A01 T03190154  RH  037%=      5-min Rain = 0
KVA1 201658Z 11001KT 32/15 A3015 RMK A01 T03190153  RH  037%=      5-min Rain = 0
KVA1 201659Z 23001KT 32/15 A3014 RMK A01 T03200153  RH  037%=      5-min Rain = 0
KVA1 201700Z 24004KT 32/15 A3014 RMK A01 T03210153  RH  036%=      5-min Rain = 0
KVA1 201701Z 27001KT 32/15 A3014 RMK A01 T03210153  RH  036%=      5-min Rain = 0
KVA1 201702Z 19002KT 32/15 A3014 RMK A01 T03200153  RH  036%=      5-min Rain = 0
KVA1 201703Z 19007KT 32/15 A3014 RMK A01 T03210152  RH  036%=      5-min Rain = 0
KVA1 201704Z 21005KT 32/15 A3014 RMK A01 T03210153  RH  036%=      5-min Rain = 0
KVA1 201705Z 19006KT 32/16 A3014 RMK A01 T03240155  RH  036%=      5-min Rain = 0
KVA1 201706Z 16007KT 33/15 A3014 RMK A01 T03250153  RH  035%=      5-min Rain = 0
KVA1 201707Z 14006KT 33/15 A3014 RMK A01 T03260152  RH  035%=      5-min Rain = 0
KVA1 201708Z 12005KT 33/15 A3014 RMK A01 T03280148  RH  034%=      5-min Rain = 0
KVA1 201709Z 10004KT 33/15 A3014 RMK A01 T03290147  RH  033%=      5-min Rain = 0
KVA1 201710Z 10004KT 33/15 A3014 RMK A01 T03270147  RH  034%=      5-min Rain = 0
KVA1 201711Z 11003KT 33/15 A3014 RMK A01 T03260148  RH  034%=      5-min Rain = 0
KVA1 201712Z 12003KT 33/15 A3014 RMK A01 T03260150  RH  035%=      5-min Rain = 0
KVA1 201713Z 15005KT 33/15 A3014 RMK A01 T03270152  RH  035%=      5-min Rain = 0
KVA1 201714Z 14006KT 33/15 A3014 RMK A01 T03310152  RH  034%=      5-min Rain = 0
KVA1 201715Z 15007KT 33/15 A3014 RMK A01 T03310151  RH  034%=      5-min Rain = 0
KVA1 201716Z 15007KT 33/15 A3014 RMK A01 T03310152  RH  034%=      5-min Rain = 0
KVA1 201717Z 20004KT 33/15 A3014 RMK A01 T03310151  RH  034%=      5-min Rain = 0
KVA1 201718Z 15002KT 33/15 A3014 RMK A01 T03300152  RH  034%=      5-min Rain = 0
KVA1 201719Z 08003KT 33/15 A3014 RMK A01 T03290152  RH  034%=      5-min Rain = 0
KVA1 201720Z 08005KT 33/15 A3014 RMK A01 T03280151  RH  034%=      5-min Rain = 0
KVA1 201721Z 12005KT 33/15 A3014 RMK A01 T03270152  RH  035%=      5-min Rain = 0
KVA1 201722Z 13004KT 33/15 A3014 RMK A01 T03290152  RH  034%=      5-min Rain = 0
KVA1 201723Z 07004KT 33/15 A3014 RMK A01 T03330152  RH  034%=      5-min Rain = 0
KVA1 201724Z 06004KT 33/15 A3014 RMK A01 T03330152  RH  034%=      5-min Rain = 0
KVA1 201725Z 06004KT 33/15 A3014 RMK A01 T03330152  RH  034%=      5-min Rain = 0
KVA1 201726Z 19002KT 33/15 A3014 RMK A01 T03340151  RH  033%=      5-min Rain = 0
KVA1 201727Z 18005KT 34/15 A3014 RMK A01 T03350152  RH  033%=      5-min Rain = 0
KVA1 201728Z 22006KT 34/15 A3014 RMK A01 T03350152  RH  033%=      5-min Rain = 0
KVA1 201729Z 21009KT 33/15 A3014 RMK A01 T03320152  RH  034%=      5-min Rain = 0
KVA1 201730Z 16006KT 33/15 A3014 RMK A01 T03340152  RH  034%=      5-min Rain = 0
KVA1 201731Z 16006KT 34/15 A3014 RMK A01 T03350151  RH  033%=      5-min Rain = 0
KVA1 201732Z 19006KT 33/15 A3014 RMK A01 T03340149  RH  033%=      5-min Rain = 0
KVA1 201733Z 19010KT 33/15 A3014 RMK A01 T03320149  RH  033%=      5-min Rain = 0
KVA1 201734Z 17011KT 33/15 A3014 RMK A01 T03320147  RH  033%=      5-min Rain = 0
KVA1 201735Z 15009KT 33/15 A3014 RMK A01 T03340147  RH  032%=      5-min Rain = 0
KVA1 201736Z 16007KT 34/15 A3014 RMK A01 T03360147  RH  032%=      5-min Rain = 0
KVA1 201737Z 17007KT 34/15 A3014 RMK A01 T03360147  RH  032%=      5-min Rain = 0
KVA1 201738Z 16006KT 33/14 A3014 RMK A01 T03330143  RH  032%=      5-min Rain = 0
KVA1 201739Z 17006KT 33/14 A3014 RMK A01 T03300144  RH  033%=      5-min Rain = 0
KVA1 201740Z 20007KT 33/14 A3014 RMK A01 T03290144  RH  033%=      5-min Rain = 0
KVA1 201741Z 22006KT 33/14 A3014 RMK A01 T03290144  RH  033%=      5-min Rain = 0
KVA1 201742Z 20005KT 33/14 A3014 RMK A01 T03300143  RH  032%=      5-min Rain = 0
KVA1 201743Z 15006KT 33/14 A3014 RMK A01 T03300142  RH  032%=      5-min Rain = 0
KVA1 201744Z 13003KT 33/14 A3014 RMK A01 T03310142  RH  032%=      5-min Rain = 0
KVA1 201745Z 07001KT 33/14 A3014 RMK A01 T03320142  RH  032%=      5-min Rain = 0
KVA1 201746Z 06001KT 33/14 A3014 RMK A01 T03310142  RH  032%=      5-min Rain = 0
KVA1 201747Z 12005KT 33/14 A3014 RMK A01 T03320143  RH  032%=      5-min Rain = 0
KVA1 201748Z 12008KT 33/15 A3014 RMK A01 T03340145  RH  032%=      5-min Rain = 0
KVA1 201749Z 10004KT 33/14 A3014 RMK A01 T03340144  RH  032%=      5-min Rain = 0
KVA1 201750Z 09004KT 33/14 A3014 RMK A01 T03320144  RH  032%=      5-min Rain = 0
KVA1 201751Z 13007KT 33/15 A3014 RMK A01 T03310145  RH  032%=      5-min Rain = 0
KVA1 201752Z 07003KT 33/14 A3013 RMK A01 T03330144  RH  032%=      5-min Rain = 0
KVA1 201753Z 11004KT 34/15 A3013 RMK A01 T03350145  RH  032%=      5-min Rain = 0
KVA1 201754Z 16005KT 34/15 A3014 RMK A01 T03380146  RH  032%=      5-min Rain = 0
KVA1 201755Z 17008KT 34/14 A3013 RMK A01 T03430144  RH  030%=      5-min Rain = 0
KVA1 201756Z 17008KT 35/14 A3013 RMK A01 T03450143  RH  030%=      5-min Rain = 0
KVA1 201757Z 21006KT 34/14 A3013 RMK A01 T03410142  RH  030%=      5-min Rain = 0
KVA1 201758Z 21005KT 34/14 A3013 RMK A01 T03380142  RH  031%=      5-min Rain = 0
KVA1 201759Z 18004KT 34/14 A3013 RMK A01 T03360142  RH  031%=      5-min Rain = 0
KVA1 201800Z 18003KT 34/14 A3013 RMK A01 T03350143  RH  031%=      5-min Rain = 0
KVA1 201801Z 14004KT 34/15 A3013 RMK A01 T03350145  RH  032%=      5-min Rain = 0
KVA1 201802Z 14004KT 34/15 A3013 RMK A01 T03360145  RH  032%=      5-min Rain = 0
KVA1 201803Z 14003KT 34/14 A3013 RMK A01 T03390144  RH  031%=      5-min Rain = 0
KVA1 201804Z 22002KT 34/14 A3013 RMK A01 T03370142  RH  031%=      5-min Rain = 0
KVA1 201805Z 23001KT 34/14 A3013 RMK A01 T03370143  RH  031%=      5-min Rain = 0
KVA1 201806Z 27001KT 34/14 A3013 RMK A01 T03370143  RH  031%=      5-min Rain = 0
KVA1 201807Z 31002KT 34/15 A3013 RMK A01 T03390146  RH  031%=      5-min Rain = 0
KVA1 201808Z 28002KT 34/14 A3013 RMK A01 T03410144  RH  031%=      5-min Rain = 0
KVA1 201809Z 27003KT 34/14 A3013 RMK A01 T03400142  RH  030%=      5-min Rain = 0
KVA1 201810Z 29001KT 34/14 A3013 RMK A01 T03380142  RH  031%=      5-min Rain = 0
KVA1 201811Z 10003KT 34/14 A3013 RMK A01 T03380143  RH  031%=      5-min Rain = 0
KVA1 201812Z 11005KT 34/14 A3013 RMK A01 T03400143  RH  031%=      5-min Rain = 0
KVA1 201813Z 13006KT 34/15 A3013 RMK A01 T03430145  RH  030%=      5-min Rain = 0
KVA1 201814Z 15006KT 35/14 A3013 RMK A01 T03460142  RH  029%=      5-min Rain = 0
KVA1 201815Z 17004KT 35/14 A3013 RMK A01 T03450140  RH  029%=      5-min Rain = 0
KVA1 201816Z 21003KT 34/14 A3013 RMK A01 T03440139  RH  029%=      5-min Rain = 0
KVA1 201817Z 23001KT 34/14 A3013 RMK A01 T03440139  RH  029%=      5-min Rain = 0
KVA1 201818Z 18003KT 35/14 A3013 RMK A01 T03460138  RH  029%=      5-min Rain = 0
KVA1 201819Z 24000KT 35/14 A3013 RMK A01 T03450137  RH  029%=      5-min Rain = 0
KVA1 201820Z 26004KT 34/14 A3012 RMK A01 T03440137  RH  029%=      5-min Rain = 0
KVA1 201821Z 22002KT 34/14 A3012 RMK A01 T03430137  RH  029%=      5-min Rain = 0
KVA1 201822Z 20002KT 34/14 A3012 RMK A01 T03430136  RH  029%=      5-min Rain = 0
KVA1 201823Z 20004KT 35/14 A3012 RMK A01 T03450136  RH  028%=      5-min Rain = 0
KVA1 201824Z 19006KT 35/14 A3012 RMK A01 T03450136  RH  029%=      5-min Rain = 0
KVA1 201825Z 20007KT 34/14 A3012 RMK A01 T03430137  RH  029%=      5-min Rain = 0
KVA1 201826Z 20005KT 35/14 A3012 RMK A01 T03450138  RH  029%=      5-min Rain = 0
KVA1 201827Z 15006G11KT 35/14 A3012 RMK A01 T03470140  RH  029%=      5-min Rain = 0
KVA1 201828Z 15009KT 35/14 A3012 RMK A01 T03510141  RH  028%=      5-min Rain = 0
KVA1 201829Z 15007KT 35/14 A3012 RMK A01 T03520140  RH  028%=      5-min Rain = 0
KVA1 201830Z 13005KT 35/14 A3012 RMK A01 T03490139  RH  028%=      5-min Rain = 0
KVA1 201831Z 12002KT 35/14 A3012 RMK A01 T03480137  RH  028%=      5-min Rain = 0
KVA1 201832Z 18002KT 35/14 A3012 RMK A01 T03490139  RH  028%=      5-min Rain = 0
KVA1 201833Z 18006KT 35/14 A3012 RMK A01 T03510136  RH  027%=      5-min Rain = 0
KVA1 201834Z 18007KT 35/13 A3012 RMK A01 T03520128  RH  026%=      5-min Rain = 0
KVA1 201835Z 18004KT 35/13 A3012 RMK A01 T03480129  RH  027%=      5-min Rain = 0
KVA1 201836Z 16002KT 35/13 A3012 RMK A01 T03470131  RH  027%=      5-min Rain = 0
KVA1 201837Z 14004KT 35/13 A3012 RMK A01 T03480132  RH  027%=      5-min Rain = 0
KVA1 201838Z 12005KT 35/13 A3012 RMK A01 T03500132  RH  027%=      5-min Rain = 0
KVA1 201839Z 11003KT 35/13 A3012 RMK A01 T03510132  RH  027%=      5-min Rain = 0
KVA1 201840Z 11001KT 35/13 A3012 RMK A01 T03470131  RH  027%=      5-min Rain = 0
KVA1 201841Z 04002KT 35/13 A3012 RMK A01 T03460132  RH  028%=      5-min Rain = 0
KVA1 201842Z 12003KT 35/13 A3012 RMK A01 T03470133  RH  027%=      5-min Rain = 0
KVA1 201843Z 18008KT 35/13 A3012 RMK A01 T03480134  RH  028%=      5-min Rain = 0
KVA1 201844Z 17007KT 35/14 A3012 RMK A01 T03500137  RH  028%=      5-min Rain = 0
KVA1 201845Z 17006KT 35/14 A3012 RMK A01 T03520137  RH  027%=      5-min Rain = 0
KVA1 201846Z 16005KT 35/14 A3012 RMK A01 T03530135  RH  027%=      5-min Rain = 0
KVA1 201847Z 18002KT 35/13 A3012 RMK A01 T03540133  RH  026%=      5-min Rain = 0
KVA1 201848Z 33001KT 35/13 A3011 RMK A01 T03510132  RH  027%=      5-min Rain = 0
KVA1 201849Z 33001KT 35/13 A3011 RMK A01 T03500133  RH  027%=      5-min Rain = 0
KVA1 201850Z 28004KT 35/13 A3011 RMK A01 T03470133  RH  028%=      5-min Rain = 0
KVA1 201851Z 27004KT 35/13 A3011 RMK A01 T03460133  RH  028%=      5-min Rain = 0
KVA1 201852Z 21003KT 35/14 A3011 RMK A01 T03470135  RH  028%=      5-min Rain = 0
KVA1 201853Z 21005KT 35/14 A3011 RMK A01 T03520135  RH  027%=      5-min Rain = 0
KVA1 201854Z 20005KT 35/13 A3011 RMK A01 T03520130  RH  026%=      5-min Rain = 0
KVA1 201855Z 19004KT 35/13 A3011 RMK A01 T03500130  RH  027%=      5-min Rain = 0
KVA1 201856Z 19003KT 35/13 A3011 RMK A01 T03480127  RH  026%=      5-min Rain = 0
KVA1 201857Z 20004KT 35/13 A3011 RMK A01 T03470128  RH  027%=      5-min Rain = 0
KVA1 201858Z 24008KT 35/13 A3011 RMK A01 T03500129  RH  027%=      5-min Rain = 0
KVA1 201859Z 26009KT 35/13 A3011 RMK A01 T03490125  RH  026%=      5-min Rain = 0
KVA1 201900Z 27007KT 35/13 A3011 RMK A01 T03480127  RH  026%=      5-min Rain = 0
KVA1 201901Z 21005KT 35/13 A3011 RMK A01 T03500128  RH  026%=      5-min Rain = 0
KVA1 201902Z 17008KT 35/13 A3011 RMK A01 T03530125  RH  025%=      5-min Rain = 0
KVA1 201903Z 19004KT 35/12 A3011 RMK A01 T03510122  RH  025%=      5-min Rain = 0
KVA1 201904Z 21003KT 35/12 A3011 RMK A01 T03490124  RH  026%=      5-min Rain = 0
KVA1 201905Z 19002KT 35/12 A3011 RMK A01 T03530123  RH  025%=      5-min Rain = 0
KVA1 201906Z 17005KT 35/12 A3011 RMK A01 T03540124  RH  025%=      5-min Rain = 0
KVA1 201907Z 16005KT 36/12 A3011 RMK A01 T03550123  RH  025%=      5-min Rain = 0
KVA1 201908Z 14007KT 36/12 A3011 RMK A01 T03560122  RH  024%=      5-min Rain = 0
KVA1 201909Z 16005KT 36/12 A3011 RMK A01 T03560122  RH  024%=      5-min Rain = 0
KVA1 201910Z 16004KT 36/12 A3011 RMK A01 T03560122  RH  024%=      5-min Rain = 0
KVA1 201911Z 18006KT 36/12 A301 RMK A01 T03570122  RH  024%=      5-min Rain = 0
KVA1 201912Z 17008KT 36/12 A301 RMK A01 T03580123  RH  024%=      5-min Rain = 0
KVA1 201913Z 17008KT 36/12 A301 RMK A01 T03590122  RH  024%=      5-min Rain = 0
KVA1 201914Z 21006KT 36/12 A301 RMK A01 T03590123  RH  024%=      5-min Rain = 0
KVA1 201915Z 19008KT 36/12 A301 RMK A01 T03570124  RH  025%=      5-min Rain = 0
KVA1 201916Z 20008KT 36/13 A301 RMK A01 T03600125  RH  024%=      5-min Rain = 0
KVA1 201917Z 21007KT 36/13 A301 RMK A01 T03590125  RH  025%=      5-min Rain = 0
KVA1 201918Z 21006KT 36/12 A301 RMK A01 T03590123  RH  024%=      5-min Rain = 0
KVA1 201919Z 20006KT 36/12 A301 RMK A01 T03570122  RH  024%=      5-min Rain = 0
KVA1 201920Z 22003KT 35/12 A301 RMK A01 T03530121  RH  025%=      5-min Rain = 0
KVA1 201921Z 19000KT 35/12 A301 RMK A01 T03530120  RH  025%=      5-min Rain = 0
KVA1 201922Z 14002KT 35/12 A301 RMK A01 T03520122  RH  025%=      5-min Rain = 0
KVA1 201923Z 13007KT 35/12 A301 RMK A01 T03540121  RH  024%=      5-min Rain = 0
KVA1 201924Z 11005KT 36/12 A301 RMK A01 T03580119  RH  024%=      5-min Rain = 0
KVA1 201925Z 12009KT 36/12 A301 RMK A01 T03640119  RH  023%=      5-min Rain = 0
KVA1 201926Z 10010KT 37/12 A301 RMK A01 T03650115  RH  022%=      5-min Rain = 0
KVA1 201927Z 11005KT 36/12 A301 RMK A01 T03610116  RH  023%=      5-min Rain = 0
KVA1 201928Z 10001KT 36/12 A301 RMK A01 T03550117  RH  024%=      5-min Rain = 0
KVA1 201929Z 06000KT 35/12 A301 RMK A01 T03530115  RH  024%=      5-min Rain = 0
KVA1 201930Z 16002KT 35/11 A301 RMK A01 T03520114  RH  024%=      5-min Rain = 0
KVA1 201931Z 20002KT 36/11 A301 RMK A01 T03560113  RH  023%=      5-min Rain = 0
KVA1 201932Z 10003KT 36/11 A301 RMK A01 T03590113  RH  023%=      5-min Rain = 0
KVA1 201933Z 06005KT 36/11 A301 RMK A01 T03610113  RH  022%=      5-min Rain = 0
KVA1 201934Z 05005KT 36/11 A301 RMK A01 T03600110  RH  022%=      5-min Rain = 0
KVA1 201935Z 05004KT 36/11 A301 RMK A01 T03610110  RH  022%=      5-min Rain = 0
KVA1 201936Z 07003KT 36/11 A301 RMK A01 T03600109  RH  022%=      5-min Rain = 0
KVA1 201937Z 06002KT 36/11 A301 RMK A01 T03570108  RH  022%=      5-min Rain = 0
KVA1 201938Z 06004KT 36/11 A301 RMK A01 T03570109  RH  022%=      5-min Rain = 0
KVA1 201939Z 08006KT 36/11 A301 RMK A01 T03620112  RH  022%=      5-min Rain = 0
KVA1 201940Z 11009KT 37/11 A3009 RMK A01 T03670113  RH  022%=      5-min Rain = 0
KVA1 201941Z 14008KT 37/11 A3009 RMK A01 T03690109  RH  021%=      5-min Rain = 0
KVA1 201942Z 18005KT 37/11 A301 RMK A01 T03650107  RH  021%=      5-min Rain = 0
KVA1 201943Z 15007KT 36/11 A3009 RMK A01 T03630107  RH  021%=      5-min Rain = 0
KVA1 201944Z 12007KT 36/11 A301 RMK A01 T03630107  RH  021%=      5-min Rain = 0
KVA1 201945Z 12007KT 36/11 A301 RMK A01 T03610107  RH  022%=      5-min Rain = 0
KVA1 201946Z 10004KT 36/11 A301 RMK A01 T03620106  RH  021%=      5-min Rain = 0
KVA1 201947Z 12006KT 36/11 A301 RMK A01 T03610107  RH  021%=      5-min Rain = 0
KVA1 201948Z 16004KT 36/10 A301 RMK A01 T03620103  RH  021%=      5-min Rain = 0
KVA1 201949Z 21004KT 36/10 A3009 RMK A01 T03630102  RH  021%=      5-min Rain = 0
KVA1 201950Z 15005KT 37/10 A3009 RMK A01 T03660103  RH  020%=      5-min Rain = 0
KVA1 201951Z 13009KT 37/11 A3009 RMK A01 T03680107  RH  021%=      5-min Rain = 0
KVA1 201952Z 13007KT 37/11 A3009 RMK A01 T03680107  RH  021%=      5-min Rain = 0
KVA1 201953Z 11009KT 37/11 A3009 RMK A01 T03660107  RH  021%=      5-min Rain = 0
KVA1 201954Z 10008KT 37/10 A3009 RMK A01 T03670104  RH  020%=      5-min Rain = 0
KVA1 201955Z 09006KT 37/10 A3009 RMK A01 T03680100  RH  020%=      5-min Rain = 0
KVA1 201956Z 10003G8KT 37/10 A3009 RMK A01 T03660104  RH  021%=      5-min Rain = 0
KVA1 201957Z 34000KT 36/10 A3009 RMK A01 T03640104  RH  021%=      5-min Rain = 0
KVA1 201958Z 02003KT 36/10 A3009 RMK A01 T03620104  RH  021%=      5-min Rain = 0
KVA1 201959Z 06004KT 36/11 A3009 RMK A01 T03640108  RH  021%=      5-min Rain = 0
KVA1 202000Z 06005KT 37/11 A3009 RMK A01 T03670109  RH  021%=      5-min Rain = 0
KVA1 202001Z 09006KT 37/11 A3009 RMK A01 T03680110  RH  021%=      5-min Rain = 0
KVA1 202002Z 07005KT 37/11 A3009 RMK A01 T03680110  RH  021%=      5-min Rain = 0
KVA1 202003Z 13007KT 37/11 A3009 RMK A01 T03680105  RH  020%=      5-min Rain = 0
KVA1 202004Z 14008KT 37/10 A3009 RMK A01 T03680096  RH  019%=      5-min Rain = 0
KVA1 202005Z 15011KT 37/10 A3009 RMK A01 T03710096  RH  019%=      5-min Rain = 0
KVA1 202006Z 15007KT 38/10 A3009 RMK A01 T03750096  RH  019%=      5-min Rain = 0
KVA1 202007Z 15010KT 38/09 A3008 RMK A01 T03780090  RH  018%=      5-min Rain = 0
KVA1 202008Z 16006KT 38/09 A3008 RMK A01 T03780091  RH  018%=      5-min Rain = 0
KVA1 202009Z 19006KT 38/09 A3008 RMK A01 T03780091  RH  018%=      5-min Rain = 0
KVA1 202010Z 17003KT 38/09 A3008 RMK A01 T03790090  RH  017%=      5-min Rain = 0
KVA1 202011Z 12005G11KT 38/10 A3008 RMK A01 T03780096  RH  018%=      5-min Rain = 0
KVA1 202012Z 13006KT 38/10 A3008 RMK A01 T03760100  RH  019%=      5-min Rain = 0
KVA1 202013Z 13007KT 37/10 A3008 RMK A01 T03730102  RH  020%=      5-min Rain = 0
KVA1 202014Z 16005KT 37/10 A3008 RMK A01 T03700099  RH  019%=      5-min Rain = 0
KVA1 202015Z 19007KT 37/10 A3008 RMK A01 T03680096  RH  019%=      5-min Rain = 0
KVA1 202016Z 20004KT 37/09 A3008 RMK A01 T03670093  RH  019%=      5-min Rain = 0
KVA1 202017Z 22006KT 37/09 A3008 RMK A01 T03660091  RH  019%=      5-min Rain = 0
KVA1 202018Z 23002KT 37/09 A3008 RMK A01 T03670092  RH  019%=      5-min Rain = 0
KVA1 202019Z 13002G7KT 37/09 A3008 RMK A01 T03700093  RH  019%=      5-min Rain = 0
KVA1 202020Z 13008KT 37/10 A3008 RMK A01 T03740097  RH  019%=      5-min Rain = 0
KVA1 202021Z 13004KT 37/10 A3008 RMK A01 T03730097  RH  019%=      5-min Rain = 0
KVA1 202022Z 12003KT 37/10 A3008 RMK A01 T03700098  RH  019%=      5-min Rain = 0
KVA1 202023Z 14003KT 37/10 A3008 RMK A01 T03670098  RH  020%=      5-min Rain = 0
KVA1 202024Z 16002KT 37/10 A3008 RMK A01 T03660097  RH  020%=      5-min Rain = 0
KVA1 202025Z 24001KT 37/10 A3008 RMK A01 T03660097  RH  020%=      5-min Rain = 0
KVA1 202026Z 09004KT 37/10 A3008 RMK A01 T03670097  RH  019%=      5-min Rain = 0
KVA1 202027Z 09007KT 37/10 A3008 RMK A01 T03690098  RH  019%=      5-min Rain = 0
KVA1 202028Z 10007KT 37/10 A3008 RMK A01 T03690099  RH  020%=      5-min Rain = 0
KVA1 202029Z 10007KT 37/10 A3008 RMK A01 T03680099  RH  020%=      5-min Rain = 0
KVA1 202030Z 08006KT 37/10 A3008 RMK A01 T03650098  RH  020%=      5-min Rain = 0
KVA1 202031Z 05004KT 36/10 A3008 RMK A01 T03620097  RH  020%=      5-min Rain = 0
KVA1 202032Z 04002KT 36/10 A3007 RMK A01 T03590095  RH  020%=      5-min Rain = 0
KVA1 202033Z 05002KT 36/10 A3007 RMK A01 T03580096  RH  020%=      5-min Rain = 0
KVA1 202034Z 02001KT 36/10 A3007 RMK A01 T03590095  RH  020%=      5-min Rain = 0
KVA1 202035Z 32001KT 36/10 A3007 RMK A01 T03590095  RH  020%=      5-min Rain = 0
KVA1 202036Z 07002KT 36/10 A3007 RMK A01 T03590096  RH  020%=      5-min Rain = 0
KVA1 202037Z 06005KT 36/10 A3007 RMK A01 T03630099  RH  020%=      5-min Rain = 0
KVA1 202038Z 09008KT 37/10 A3007 RMK A01 T03680100  RH  020%=      5-min Rain = 0
KVA1 202039Z 09007KT 37/10 A3007 RMK A01 T03690100  RH  020%=      5-min Rain = 0
KVA1 202040Z 10009KT 37/10 A3007 RMK A01 T03670100  RH  020%=      5-min Rain = 0
KVA1 202041Z 12008KT 37/10 A3007 RMK A01 T03680100  RH  020%=      5-min Rain = 0
KVA1 202042Z 13006KT 37/10 A3007 RMK A01 T03690100  RH  020%=      5-min Rain = 0
KVA1 202043Z 14004KT 37/10 A3007 RMK A01 T03710097  RH  019%=      5-min Rain = 0
KVA1 202044Z 11004KT 37/10 A3007 RMK A01 T03720098  RH  019%=      5-min Rain = 0
KVA1 202045Z 11004KT 37/09 A3007 RMK A01 T03710094  RH  019%=      5-min Rain = 0
KVA1 202046Z 09006KT 37/10 A3007 RMK A01 T03690095  RH  019%=      5-min Rain = 0
KVA1 202047Z 09004KT 37/10 A3007 RMK A01 T03700095  RH  019%=      5-min Rain = 0
KVA1 202048Z 08003KT 37/10 A3007 RMK A01 T03700096  RH  019%=      5-min Rain = 0
KVA1 202049Z 04002KT 37/09 A3007 RMK A01 T03700094  RH  019%=      5-min Rain = 0
KVA1 202050Z 35001KT 37/09 A3006 RMK A01 T03700092  RH  019%=      5-min Rain = 0
KVA1 202051Z 07001KT 37/09 A3006 RMK A01 T03670091  RH  019%=      5-min Rain = 0
KVA1 202052Z 08001KT 37/09 A3006 RMK A01 T03660091  RH  019%=      5-min Rain = 0
KVA1 202053Z 10003KT 37/09 A3006 RMK A01 T03650092  RH  019%=      5-min Rain = 0
KVA1 202054Z 15003KT 37/09 A3006 RMK A01 T03660094  RH  019%=      5-min Rain = 0
KVA1 202055Z 17006KT 37/09 A3006 RMK A01 T03690093  RH  019%=      5-min Rain = 0
KVA1 202056Z 18005KT 37/09 A3006 RMK A01 T03690092  RH  019%=      5-min Rain = 0
KVA1 202057Z 21004KT 37/09 A3006 RMK A01 T03650092  RH  019%=      5-min Rain = 0
KVA1 202058Z 22005KT 37/09 A3005 RMK A01 T03650092  RH  019%=      5-min Rain = 0
KVA1 202059Z 22005KT 37/09 A3005 RMK A01 T03660092  RH  019%=      5-min Rain = 0
KVA1 202100Z 24004KT 37/09 A3005 RMK A01 T03670093  RH  019%=      5-min Rain = 0
KVA1 202101Z 25001KT 37/09 A3005 RMK A01 T03690094  RH  019%=      5-min Rain = 0
KVA1 202102Z 14000KT 37/10 A3005 RMK A01 T03720095  RH  019%=      5-min Rain = 0
KVA1 202103Z 05004G9KT 38/10 A3005 RMK A01 T03760095  RH  018%=      5-min Rain = 0
KVA1 202104Z 07006KT 38/10 A3005 RMK A01 T03800095  RH  018%=      5-min Rain = 0
KVA1 202105Z 08007KT 38/10 A3005 RMK A01 T03820096  RH  018%=      5-min Rain = 0
KVA1 202106Z 07006KT 38/09 A3005 RMK A01 T03800094  RH  018%=      5-min Rain = 0
KVA1 202107Z 06005KT 37/09 A3005 RMK A01 T03740092  RH  018%=      5-min Rain = 0
KVA1 202108Z 09006KT 37/09 A3005 RMK A01 T03730094  RH  018%=      5-min Rain = 0
KVA1 202109Z 08004KT 37/09 A3005 RMK A01 T03730091  RH  018%=      5-min Rain = 0
KVA1 202110Z 10006KT 37/09 A3005 RMK A01 T03700092  RH  018%=      5-min Rain = 0
KVA1 202111Z 09007KT 37/10 A3005 RMK A01 T03700095  RH  019%=      5-min Rain = 0
KVA1 202112Z 09007KT 37/09 A3005 RMK A01 T03720093  RH  018%=      5-min Rain = 0
KVA1 202113Z 07008KT 37/09 A3005 RMK A01 T03710091  RH  018%=      5-min Rain = 0
KVA1 202114Z 07009KT 37/09 A3005 RMK A01 T03710090  RH  018%=      5-min Rain = 0
KVA1 202115Z 08007KT 37/09 A3005 RMK A01 T03670091  RH  019%=      5-min Rain = 0
KVA1 202116Z 08008KT 36/09 A3005 RMK A01 T03640090  RH  019%=      5-min Rain = 0
KVA1 202117Z 07007KT 36/09 A3005 RMK A01 T03630089  RH  019%=      5-min Rain = 0
KVA1 202118Z 06008KT 36/09 A3005 RMK A01 T03630089  RH  019%=      5-min Rain = 0
KVA1 202119Z 07008KT 36/09 A3005 RMK A01 T03640088  RH  019%=      5-min Rain = 0
KVA1 202120Z 08005KT 37/09 A3005 RMK A01 T03650090  RH  019%=      5-min Rain = 0
KVA1 202121Z 08004KT 37/09 A3005 RMK A01 T03660090  RH  019%=      5-min Rain = 0
KVA1 202122Z 14004KT 37/09 A3005 RMK A01 T03670090  RH  019%=      5-min Rain = 0
KVA1 202123Z 13002KT 37/09 A3005 RMK A01 T03700090  RH  018%=      5-min Rain = 0
KVA1 202124Z 09003KT 37/09 A3005 RMK A01 T03730090  RH  018%=      5-min Rain = 0
KVA1 202125Z 12004KT 37/09 A3005 RMK A01 T03740090  RH  018%=      5-min Rain = 0
KVA1 202126Z 11003KT 37/09 A3005 RMK A01 T03730090  RH  018%=      5-min Rain = 0
KVA1 202127Z 11004KT 37/09 A3005 RMK A01 T03740093  RH  018%=      5-min Rain = 0
KVA1 202128Z 10003G10KT 38/09 A3005 RMK A01 T03750093  RH  018%=      5-min Rain = 0
KVA1 202129Z 11009KT 38/09 A3005 RMK A01 T03750094  RH  018%=      5-min Rain = 0
KVA1 202130Z 13008KT 38/09 A3005 RMK A01 T03760093  RH  018%=      5-min Rain = 0
KVA1 202131Z 14007KT 38/09 A3005 RMK A01 T03770093  RH  018%=      5-min Rain = 0
KVA1 202132Z 13005KT 38/10 A3005 RMK A01 T03750096  RH  018%=      5-min Rain = 0
KVA1 202133Z 05002KT 38/09 A3005 RMK A01 T03760093  RH  018%=      5-min Rain = 0
KVA1 202134Z 02005KT 38/08 A3005 RMK A01 T03770082  RH  017%=      5-min Rain = 0
KVA1 202135Z 03006KT 38/08 A3005 RMK A01 T03770081  RH  017%=      5-min Rain = 0
KVA1 202136Z 03008KT 38/08 A3005 RMK A01 T03770084  RH  017%=      5-min Rain = 0
KVA1 202137Z 06006KT 38/09 A3005 RMK A01 T03760085  RH  017%=      5-min Rain = 0
KVA1 202138Z 06005KT 38/08 A3005 RMK A01 T03750084  RH  017%=      5-min Rain = 0
KVA1 202139Z 05006KT 37/09 A3005 RMK A01 T03720085  RH  017%=      5-min Rain = 0
KVA1 202140Z 02004KT 37/09 A3005 RMK A01 T03720086  RH  018%=      5-min Rain = 0
KVA1 202141Z 35003KT 37/09 A3005 RMK A01 T03710087  RH  018%=      5-min Rain = 0
KVA1 202142Z 04003KT 37/09 A3005 RMK A01 T03710088  RH  018%=      5-min Rain = 0
KVA1 202143Z 07003KT 37/09 A3005 RMK A01 T03740088  RH  018%=      5-min Rain = 0
KVA1 202144Z 06002KT 37/09 A3005 RMK A01 T03740088  RH  018%=      5-min Rain = 0
KVA1 202145Z 08002KT 37/09 A3005 RMK A01 T03730090  RH  018%=      5-min Rain = 0
KVA1 202146Z 10003KT 38/09 A3004 RMK A01 T03750091  RH  018%=      5-min Rain = 0
KVA1 202147Z 09004KT 38/09 A3004 RMK A01 T03780092  RH  018%=      5-min Rain = 0
KVA1 202148Z 16004KT 38/10 A3004 RMK A01 T03780095  RH  018%=      5-min Rain = 0
KVA1 202149Z 15003KT 38/10 A3004 RMK A01 T03770096  RH  018%=      5-min Rain = 0
KVA1 202150Z 13004KT 38/10 A3004 RMK A01 T03770098  RH  019%=      5-min Rain = 0
KVA1 202151Z 08006G12KT 38/10 A3004 RMK A01 T03780098  RH  019%=      5-min Rain = 0
KVA1 202152Z 09016G21KT 38/11 A3004 RMK A01 T03790111  RH  020%=      5-min Rain = 0
KVA1 202153Z 11018KT 38/12 A3004 RMK A01 T03790120  RH  021%=      5-min Rain = 0
KVA1 202154Z 13019KT 37/12 A3004 RMK A01 T03740124  RH  022%=      5-min Rain = 0
KVA1 202155Z 14016G21KT 37/13 A3004 RMK A01 T03690125  RH  023%=      5-min Rain = 0
KVA1 202156Z 15015KT 37/12 A3004 RMK A01 T03670124  RH  023%=      5-min Rain = 0
KVA1 202157Z 14011KT 36/12 A3004 RMK A01 T03640123  RH  024%=      5-min Rain = 0
KVA1 202158Z 15015KT 36/12 A3004 RMK A01 T03630123  RH  024%=      5-min Rain = 0
KVA1 202159Z 16015KT 36/12 A3004 RMK A01 T03620120  RH  023%=      5-min Rain = 0
KVA1 202200Z 16015G20KT 36/12 A3004 RMK A01 T03590120  RH  024%=      5-min Rain = 0
KVA1 202201Z 14014KT 36/12 A3004 RMK A01 T03570121  RH  024%=      5-min Rain = 0
KVA1 202202Z 14015KT 36/12 A3004 RMK A01 T03570122  RH  024%=      5-min Rain = 0
KVA1 202203Z 16013KT 36/12 A3004 RMK A01 T03570124  RH  025%=      5-min Rain = 0
KVA1 202204Z 16013KT 36/12 A3004 RMK A01 T03570122  RH  024%=      5-min Rain = 0
KVA1 202205Z 16012KT 36/12 A3004 RMK A01 T03560123  RH  025%=      5-min Rain = 0
KVA1 202206Z 16014KT 36/12 A3004 RMK A01 T03560123  RH  025%=      5-min Rain = 0
KVA1 202207Z 16013G18KT 36/12 A3004 RMK A01 T03560122  RH  024%=      5-min Rain = 0
KVA1 202208Z 16016KT 36/12 A3004 RMK A01 T03560123  RH  025%=      5-min Rain = 0
KVA1 202209Z 15013KT 36/12 A3005 RMK A01 T03560122  RH  024%=      5-min Rain = 0
KVA1 202210Z 16009KT 36/12 A3005 RMK A01 T03550123  RH  025%=      5-min Rain = 0
KVA1 202211Z 15009KT 36/12 A3005 RMK A01 T03560123  RH  025%=      5-min Rain = 0
KVA1 202212Z 16015KT 36/12 A3005 RMK A01 T03570120  RH  024%=      5-min Rain = 0
KVA1 202213Z 18016KT 36/12 A3005 RMK A01 T03550119  RH  024%=      5-min Rain = 0
KVA1 202214Z 17018KT 35/12 A3004 RMK A01 T03500116  RH  024%=      5-min Rain = 0
KVA1 202215Z 17019KT 35/12 A3004 RMK A01 T03470116  RH  025%=      5-min Rain = 0
KVA1 202216Z 17020KT 34/12 A3004 RMK A01 T03440117  RH  025%=      5-min Rain = 0
KVA1 202217Z 17020KT 34/12 A3004 RMK A01 T03420115  RH  025%=      5-min Rain = 0
KVA1 202218Z 17019KT 34/12 A3004 RMK A01 T03400116  RH  026%=      5-min Rain = 0
KVA1 202219Z 17014G19KT 34/12 A3005 RMK A01 T03390116  RH  026%=      5-min Rain = 0
KVA1 202220Z 17014KT 34/12 A3005 RMK A01 T03400117  RH  026%=      5-min Rain = 0
KVA1 202221Z 17017KT 34/12 A3005 RMK A01 T03410116  RH  025%=      5-min Rain = 0
KVA1 202222Z 17018KT 34/12 A3005 RMK A01 T03410116  RH  026%=      5-min Rain = 0
KVA1 202223Z 17016KT 34/12 A3005 RMK A01 T03390116  RH  026%=      5-min Rain = 0
KVA1 202224Z 17016KT 34/12 A3005 RMK A01 T03390116  RH  026%=      5-min Rain = 0
KVA1 202225Z 17016KT 34/12 A3005 RMK A01 T03390117  RH  026%=      5-min Rain = 0
KVA1 202226Z 17016KT 34/12 A3005 RMK A01 T03400118  RH  026%=      5-min Rain = 0
KVA1 202227Z 17015KT 34/12 A3005 RMK A01 T03390120  RH  026%=      5-min Rain = 0
KVA1 202228Z 18015KT 34/12 A3005 RMK A01 T03390122  RH  027%=      5-min Rain = 0
KVA1 202229Z 17013KT 34/12 A3005 RMK A01 T03380122  RH  027%=      5-min Rain = 0
KVA1 202230Z 18011KT 34/12 A3005 RMK A01 T03400123  RH  027%=      5-min Rain = 0
KVA1 202231Z 18012KT 34/12 A3005 RMK A01 T03410123  RH  027%=      5-min Rain = 0
KVA1 202232Z 18012KT 34/12 A3005 RMK A01 T03410123  RH  027%=      5-min Rain = 0
KVA1 202233Z 18011KT 34/12 A3005 RMK A01 T03410122  RH  027%=      5-min Rain = 0
KVA1 202234Z 18011KT 34/12 A3005 RMK A01 T03420121  RH  026%=      5-min Rain = 0
KVA1 202235Z 18013KT 34/12 A3005 RMK A01 T03420121  RH  026%=      5-min Rain = 0
KVA1 202236Z 18012KT 34/12 A3005 RMK A01 T03420122  RH  026%=      5-min Rain = 0
KVA1 202237Z 18013KT 34/12 A3005 RMK A01 T03430121  RH  026%=      5-min Rain = 0
KVA1 202238Z 18014KT 34/12 A3005 RMK A01 T03430122  RH  026%=      5-min Rain = 0
KVA1 202239Z 19014KT 34/12 A3005 RMK A01 T03420122  RH  026%=      5-min Rain = 0
KVA1 202240Z 18016KT 34/12 A3005 RMK A01 T03410121  RH  026%=      5-min Rain = 0
KVA1 202241Z 18015KT 34/12 A3005 RMK A01 T03410121  RH  026%=      5-min Rain = 0
KVA1 202242Z 18014KT 34/12 A3005 RMK A01 T03400122  RH  027%=      5-min Rain = 0
KVA1 202243Z 18015KT 34/13 A3005 RMK A01 T03400125  RH  027%=      5-min Rain = 0
KVA1 202244Z 19012KT 34/12 A3005 RMK A01 T03390124  RH  027%=      5-min Rain = 0
KVA1 202245Z 18013KT 34/12 A3005 RMK A01 T03390120  RH  027%=      5-min Rain = 0
KVA1 202246Z 18016KT 34/12 A3004 RMK A01 T03380116  RH  026%=      5-min Rain = 0
KVA1 202247Z 19013KT 34/11 A3005 RMK A01 T03380114  RH  026%=      5-min Rain = 0
KVA1 202248Z 19010KT 34/11 A3004 RMK A01 T03370114  RH  026%=      5-min Rain = 0
KVA1 202249Z 19013KT 34/11 A3004 RMK A01 T03370112  RH  025%=      5-min Rain = 0
KVA1 202250Z 19011KT 34/11 A3004 RMK A01 T03380111  RH  025%=      5-min Rain = 0
KVA1 202251Z 19013KT 34/11 A3004 RMK A01 T03400111  RH  025%=      5-min Rain = 0
KVA1 202252Z 18011KT 34/11 A3004 RMK A01 T03400110  RH  025%=      5-min Rain = 0
KVA1 202253Z 18011KT 34/11 A3004 RMK A01 T03400109  RH  024%=      5-min Rain = 0
KVA1 202254Z 18010KT 34/11 A3004 RMK A01 T03410110  RH  025%=      5-min Rain = 0
KVA1 202255Z 18012KT 34/11 A3004 RMK A01 T03410109  RH  024%=      5-min Rain = 0
KVA1 202256Z 18011KT 34/11 A3004 RMK A01 T03410109  RH  024%=      5-min Rain = 0
KVA1 202257Z 19011KT 34/11 A3004 RMK A01 T03410109  RH  024%=      5-min Rain = 0
KVA1 202258Z 19013KT 34/11 A3004 RMK A01 T03410110  RH  024%=      5-min Rain = 0
KVA1 202259Z 19009KT 34/11 A3004 RMK A01 T03410109  RH  024%=      5-min Rain = 0
KVA1 202300Z 19010KT 34/11 A3004 RMK A01 T03410109  RH  024%=      5-min Rain = 0
KVA1 202301Z 18008KT 34/11 A3004 RMK A01 T03410109  RH  024%=      5-min Rain = 0
KVA1 202302Z 19010KT 34/11 A3004 RMK A01 T03420109  RH  024%=      5-min Rain = 0
KVA1 202303Z 19009KT 34/11 A3004 RMK A01 T03430110  RH  024%=      5-min Rain = 0
KVA1 202304Z 18010KT 34/11 A3004 RMK A01 T03430112  RH  025%=      5-min Rain = 0
KVA1 202305Z 20008KT 34/11 A3004 RMK A01 T03430113  RH  025%=      5-min Rain = 0
KVA1 202306Z 20007KT 34/11 A3004 RMK A01 T03430114  RH  025%=      5-min Rain = 0
KVA1 202307Z 20008KT 34/11 A3004 RMK A01 T03440113  RH  025%=      5-min Rain = 0
KVA1 202308Z 20008KT 34/11 A3004 RMK A01 T03440112  RH  024%=      5-min Rain = 0
KVA1 202309Z 19009KT 34/11 A3004 RMK A01 T03440112  RH  024%=      5-min Rain = 0
KVA1 202310Z 19007KT 34/11 A3004 RMK A01 T03440113  RH  025%=      5-min Rain = 0
KVA1 202311Z 18008KT 34/11 A3004 RMK A01 T03440113  RH  025%=      5-min Rain = 0
KVA1 202312Z 18009KT 34/11 A3004 RMK A01 T03440111  RH  024%=      5-min Rain = 0
KVA1 202313Z 19009KT 34/11 A3004 RMK A01 T03430110  RH  024%=      5-min Rain = 0
KVA1 202314Z 19009KT 34/11 A3004 RMK A01 T03430109  RH  024%=      5-min Rain = 0
KVA1 202315Z 19008KT 34/11 A3004 RMK A01 T03430109  RH  024%=      5-min Rain = 0
KVA1 202316Z 20007KT 34/11 A3004 RMK A01 T03430110  RH  024%=      5-min Rain = 0
KVA1 202317Z 19007KT 34/11 A3004 RMK A01 T03430109  RH  024%=      5-min Rain = 0
KVA1 202318Z 20008KT 34/11 A3004 RMK A01 T03440110  RH  024%=      5-min Rain = 0
KVA1 202319Z 19006KT 35/11 A3004 RMK A01 T03460110  RH  024%=      5-min Rain = 0
KVA1 202320Z 20006KT 35/11 A3004 RMK A01 T03460111  RH  024%=      5-min Rain = 0
KVA1 202321Z 20008KT 35/11 A3004 RMK A01 T03480113  RH  024%=      5-min Rain = 0
KVA1 202322Z 20006KT 35/11 A3003 RMK A01 T03510112  RH  024%=      5-min Rain = 0
KVA1 202323Z 20007KT 35/11 A3003 RMK A01 T03530111  RH  023%=      5-min Rain = 0
KVA1 202324Z 20007KT 35/11 A3003 RMK A01 T03530111  RH  023%=      5-min Rain = 0
KVA1 202325Z 20006KT 35/11 A3003 RMK A01 T03540112  RH  023%=      5-min Rain = 0
KVA1 202326Z 20005KT 36/11 A3003 RMK A01 T03550112  RH  023%=      5-min Rain = 0
KVA1 202327Z 18007KT 36/11 A3003 RMK A01 T03570113  RH  023%=      5-min Rain = 0
KVA1 202328Z 19008KT 36/11 A3003 RMK A01 T03580111  RH  022%=      5-min Rain = 0
KVA1 202329Z 17008KT 36/11 A3003 RMK A01 T03580110  RH  022%=      5-min Rain = 0
KVA1 202330Z 17005KT 36/11 A3003 RMK A01 T03580106  RH  022%=      5-min Rain = 0
KVA1 202331Z 18006KT 36/11 A3003 RMK A01 T03570108  RH  022%=      5-min Rain = 0
KVA1 202332Z 18006KT 36/11 A3003 RMK A01 T03570109  RH  022%=      5-min Rain = 0
KVA1 202333Z 17006KT 36/11 A3003 RMK A01 T03570109  RH  022%=      5-min Rain = 0
KVA1 202334Z 16004KT 36/11 A3003 RMK A01 T03580107  RH  022%=      5-min Rain = 0
KVA1 202335Z 16004KT 36/11 A3003 RMK A01 T03590106  RH  022%=      5-min Rain = 0
KVA1 202336Z 17007KT 36/10 A3003 RMK A01 T03590104  RH  021%=      5-min Rain = 0
KVA1 202337Z 17006KT 36/11 A3003 RMK A01 T03580105  RH  021%=      5-min Rain = 0
KVA1 202338Z 19005KT 36/11 A3003 RMK A01 T03590105  RH  021%=      5-min Rain = 0
KVA1 202339Z 19004KT 36/10 A3003 RMK A01 T03580103  RH  021%=      5-min Rain = 0
KVA1 202340Z 19005KT 36/10 A3003 RMK A01 T03570103  RH  021%=      5-min Rain = 0
KVA1 202341Z 18006KT 36/11 A3003 RMK A01 T03560105  RH  022%=      5-min Rain = 0
KVA1 202342Z 17007KT 36/11 A3003 RMK A01 T03570106  RH  022%=      5-min Rain = 0
KVA1 202343Z 17007KT 36/11 A3003 RMK A01 T03590105  RH  022%=      5-min Rain = 0
KVA1 202344Z 14005KT 36/11 A3003 RMK A01 T03590106  RH  022%=      5-min Rain = 0
KVA1 202345Z 10005KT 36/11 A3003 RMK A01 T03610106  RH  021%=      5-min Rain = 0
KVA1 202346Z 11006KT 36/11 A3003 RMK A01 T03620106  RH  021%=      5-min Rain = 0
KVA1 202347Z 10008KT 36/11 A3003 RMK A01 T03630107  RH  021%=      5-min Rain = 0
KVA1 202348Z 12003KT 36/11 A3003 RMK A01 T03620106  RH  021%=      5-min Rain = 0
KVA1 202349Z 14002KT 36/11 A3003 RMK A01 T03610106  RH  021%=      5-min Rain = 0
KVA1 202350Z 19002KT 36/11 A3003 RMK A01 T03600106  RH  022%=      5-min Rain = 0
KVA1 202351Z 22001KT 36/10 A3003 RMK A01 T03580104  RH  021%=      5-min Rain = 0
KVA1 202352Z 14002KT 36/11 A3003 RMK A01 T03570105  RH  022%=      5-min Rain = 0
KVA1 202353Z 12003KT 36/11 A3003 RMK A01 T03570105  RH  022%=      5-min Rain = 0
KVA1 202354Z 10008KT 36/10 A3003 RMK A01 T03580103  RH  021%=      5-min Rain = 0
KVA1 202355Z 07006KT 36/10 A3003 RMK A01 T03590099  RH  021%=      5-min Rain = 0
KVA1 202356Z 08006KT 36/10 A3003 RMK A01 T03610097  RH  020%=      5-min Rain = 0
KVA1 202357Z 03004KT 36/10 A3003 RMK A01 T03610095  RH  020%=      5-min Rain = 0
KVA1 202358Z 05003KT 36/10 A3003 RMK A01 T03590095  RH  020%=      5-min Rain = 0
KVA1 202359Z 07004KT 36/10 A3003 RMK A01 T03590096  RH  020%=      5-min Rain = 0
KVA1 210000Z 07006KT 36/10 A3003 RMK A01 T03590098  RH  020%=      5-min Rain = 0
KVA1 210001Z 08007KT 36/10 A3003 RMK A01 T03590098  RH  020%=      5-min Rain = 0
KVA1 210002Z 09008KT 36/10 A3003 RMK A01 T03580095  RH  020%=      5-min Rain = 0
KVA1 210003Z 08008KT 36/09 A3003 RMK A01 T03580090  RH  020%=      5-min Rain = 0
KVA1 210004Z 07007KT 36/09 A3002 RMK A01 T03570088  RH  019%=      5-min Rain = 0
KVA1 210005Z 07006KT 36/09 A3002 RMK A01 T03560086  RH  019%=      5-min Rain = 0
KVA1 210006Z 08007KT 36/08 A3003 RMK A01 T03550084  RH  019%=      5-min Rain = 0
KVA1 210007Z 08006KT 35/09 A3003 RMK A01 T03540086  RH  019%=      5-min Rain = 0
KVA1 210008Z 08008KT 35/09 A3003 RMK A01 T03540087  RH  020%=      5-min Rain = 0
KVA1 210009Z 07008KT 35/08 A3003 RMK A01 T03540084  RH  019%=      5-min Rain = 0
KVA1 210010Z 07009KT 35/08 A3003 RMK A01 T03530078  RH  019%=      5-min Rain = 0
KVA1 210011Z 07008KT 35/07 A3003 RMK A01 T03530074  RH  018%=      5-min Rain = 0
KVA1 210012Z 08008KT 35/07 A3003 RMK A01 T03530074  RH  018%=      5-min Rain = 0
KVA1 210013Z 08008KT 35/07 A3003 RMK A01 T03530074  RH  018%=      5-min Rain = 0
KVA1 210014Z 08008KT 35/07 A3003 RMK A01 T03530074  RH  018%=      5-min Rain = 0
KVA1 210015Z 08006KT 35/07 A3003 RMK A01 T03520074  RH  018%=      5-min Rain = 0
KVA1 210016Z 09007KT 35/08 A3003 RMK A01 T03520075  RH  018%=      5-min Rain = 0
KVA1 210017Z 09008KT 35/07 A3003 RMK A01 T03520074  RH  018%=      5-min Rain = 0
KVA1 210018Z 08008KT 35/07 A3003 RMK A01 T03520072  RH  018%=      5-min Rain = 0
KVA1 210019Z 07010KT 35/07 A3003 RMK A01 T03520072  RH  018%=      5-min Rain = 0
KVA1 210020Z 09009KT 35/07 A3003 RMK A01 T03520071  RH  018%=      5-min Rain = 0
KVA1 210021Z 10008KT 35/07 A3003 RMK A01 T03510070  RH  018%=      5-min Rain = 0
KVA1 210022Z 08008KT 35/07 A3003 RMK A01 T03510070  RH  018%=      5-min Rain = 0
KVA1 210023Z 08009KT 35/07 A3003 RMK A01 T03520070  RH  018%=      5-min Rain = 0
KVA1 210024Z 07009KT 35/07 A3003 RMK A01 T03520070  RH  018%=      5-min Rain = 0
KVA1 210025Z 07008KT 35/07 A3003 RMK A01 T03510070  RH  018%=      5-min Rain = 0
KVA1 210026Z 07009KT 35/07 A3003 RMK A01 T03510069  RH  018%=      5-min Rain = 0
KVA1 210027Z 06009KT 35/07 A3003 RMK A01 T03500068  RH  018%=      5-min Rain = 0
KVA1 210028Z 07009KT 35/07 A3003 RMK A01 T03510067  RH  017%=      5-min Rain = 0
KVA1 210029Z 06011KT 35/07 A3003 RMK A01 T03510067  RH  017%=      5-min Rain = 0
KVA1 210030Z 07009KT 35/07 A3003 RMK A01 T03520068  RH  017%=      5-min Rain = 0
KVA1 210031Z 07009KT 35/07 A3003 RMK A01 T03530069  RH  017%=      5-min Rain = 0
KVA1 210032Z 08008KT 35/07 A3003 RMK A01 T03530070  RH  017%=      5-min Rain = 0
KVA1 210033Z 07008KT 35/07 A3003 RMK A01 T03520069  RH  018%=      5-min Rain = 0
KVA1 210034Z 07007KT 35/07 A3003 RMK A01 T03510070  RH  018%=      5-min Rain = 0
KVA1 210035Z 07008KT 35/07 A3003 RMK A01 T03510070  RH  018%=      5-min Rain = 0
KVA1 210036Z 08008KT 35/07 A3003 RMK A01 T03500069  RH  018%=      5-min Rain = 0
KVA1 210037Z 07008KT 35/07 A3003 RMK A01 T03500069  RH  018%=      5-min Rain = 0
KVA1 210038Z 07008KT 35/07 A3003 RMK A01 T03500068  RH  018%=      5-min Rain = 0
KVA1 210039Z 07010KT 35/07 A3003 RMK A01 T03490068  RH  018%=      5-min Rain = 0
KVA1 210040Z 07007KT 35/07 A3003 RMK A01 T03490068  RH  018%=      5-min Rain = 0
KVA1 210041Z 08009KT 35/07 A3003 RMK A01 T03490068  RH  018%=      5-min Rain = 0
KVA1 210042Z 08008KT 35/07 A3003 RMK A01 T03490068  RH  018%=      5-min Rain = 0
KVA1 210043Z 08008KT 35/07 A3003 RMK A01 T03500068  RH  018%=      5-min Rain = 0
KVA1 210044Z 07008KT 35/07 A3003 RMK A01 T03500068  RH  018%=      5-min Rain = 0
KVA1 210045Z 07007KT 35/07 A3003 RMK A01 T03510068  RH  017%=      5-min Rain = 0
KVA1 210046Z 07008KT 35/07 A3003 RMK A01 T03510068  RH  017%=      5-min Rain = 0
KVA1 210047Z 07007KT 35/07 A3003 RMK A01 T03510068  RH  017%=      5-min Rain = 0
KVA1 210048Z 08007KT 35/07 A3003 RMK A01 T03520068  RH  017%=      5-min Rain = 0
KVA1 210049Z 07008KT 35/07 A3003 RMK A01 T03520068  RH  017%=      5-min Rain = 0
KVA1 210050Z 07006KT 35/07 A3003 RMK A01 T03520068  RH  017%=      5-min Rain = 0
KVA1 210051Z 08007KT 35/07 A3003 RMK A01 T03520069  RH  017%=      5-min Rain = 0
KVA1 210052Z 07008KT 35/07 A3003 RMK A01 T03520068  RH  017%=      5-min Rain = 0
KVA1 210053Z 07008KT 35/07 A3003 RMK A01 T03520067  RH  017%=      5-min Rain = 0
KVA1 210054Z 08006KT 35/07 A3003 RMK A01 T03520068  RH  017%=      5-min Rain = 0
KVA1 210055Z 08006KT 35/07 A3003 RMK A01 T03520069  RH  017%=      5-min Rain = 0
KVA1 210056Z 08006KT 35/07 A3003 RMK A01 T03510068  RH  017%=      5-min Rain = 0
KVA1 210057Z 09006KT 35/07 A3003 RMK A01 T03520068  RH  017%=      5-min Rain = 0
KVA1 210058Z 08005KT 35/07 A3003 RMK A01 T03510068  RH  017%=      5-min Rain = 0
KVA1 210059Z 08005KT 35/07 A3003 RMK A01 T03510069  RH  018%=      5-min Rain = 0
KVA1 210100Z 08006KT 35/07 A3003 RMK A01 T03510069  RH  018%=      5-min Rain = 0
KVA1 210101Z 08007KT 35/07 A3003 RMK A01 T03510068  RH  017%=      5-min Rain = 0
KVA1 210102Z 08006KT 35/07 A3003 RMK A01 T03510067  RH  017%=      5-min Rain = 0
KVA1 210103Z 09006KT 35/07 A3003 RMK A01 T03500068  RH  017%=      5-min Rain = 0
KVA1 210104Z 09007KT 35/07 A3004 RMK A01 T03500068  RH  018%=      5-min Rain = 0
KVA1 210105Z 09007KT 35/07 A3004 RMK A01 T03500067  RH  017%=      5-min Rain = 0
KVA1 210106Z 09006KT 35/07 A3004 RMK A01 T03490067  RH  018%=      5-min Rain = 0
KVA1 210107Z 09008KT 35/07 A3004 RMK A01 T03490067  RH  018%=      5-min Rain = 0
KVA1 210108Z 08008KT 35/07 A3004 RMK A01 T03480066  RH  017%=      5-min Rain = 0
KVA1 210109Z 09008KT 35/07 A3004 RMK A01 T03480065  RH  017%=      5-min Rain = 0
KVA1 210110Z 08008KT 35/07 A3004 RMK A01 T03480065  RH  017%=      5-min Rain = 0
KVA1 210111Z 07007KT 35/07 A3004 RMK A01 T03480066  RH  017%=      5-min Rain = 0
KVA1 210112Z 07006KT 35/07 A3004 RMK A01 T03470068  RH  018%=      5-min Rain = 0
KVA1 210113Z 07007KT 35/07 A3004 RMK A01 T03460068  RH  018%=      5-min Rain = 0
KVA1 210114Z 08011KT 35/07 A3004 RMK A01 T03450070  RH  018%=      5-min Rain = 0
KVA1 210115Z 07009KT 35/07 A3004 RMK A01 T03450072  RH  019%=      5-min Rain = 0
KVA1 210116Z 07008G13KT 34/07 A3004 RMK A01 T03440072  RH  019%=      5-min Rain = 0
KVA1 210117Z 07010KT 34/07 A3004 RMK A01 T03440072  RH  019%=      5-min Rain = 0
KVA1 210118Z 07009KT 34/07 A3004 RMK A01 T03440071  RH  019%=      5-min Rain = 0
KVA1 210119Z 07009KT 34/07 A3004 RMK A01 T03430071  RH  019%=      5-min Rain = 0
KVA1 210120Z 08009KT 34/07 A3004 RMK A01 T03420071  RH  019%=      5-min Rain = 0
KVA1 210121Z 08007KT 34/07 A3004 RMK A01 T03420071  RH  019%=      5-min Rain = 0
KVA1 210122Z 08008KT 34/07 A3004 RMK A01 T03410071  RH  019%=      5-min Rain = 0
KVA1 210123Z 08006KT 34/07 A3004 RMK A01 T03410070  RH  019%=      5-min Rain = 0
KVA1 210124Z 09006KT 34/07 A3004 RMK A01 T03400070  RH  019%=      5-min Rain = 0
KVA1 210125Z 08006KT 34/07 A3004 RMK A01 T03390070  RH  019%=      5-min Rain = 0
KVA1 210126Z 08007KT 34/07 A3005 RMK A01 T03390070  RH  019%=      5-min Rain = 0
KVA1 210127Z 09008KT 34/07 A3005 RMK A01 T03390070  RH  019%=      5-min Rain = 0
KVA1 210128Z 09010KT 34/07 A3004 RMK A01 T03380073  RH  019%=      5-min Rain = 0
KVA1 210129Z 08010KT 34/08 A3005 RMK A01 T03380077  RH  020%=      5-min Rain = 0
KVA1 210130Z 08009KT 34/08 A3005 RMK A01 T03380082  RH  021%=      5-min Rain = 0
KVA1 210131Z 08013G18KT 34/09 A3005 RMK A01 T03370086  RH  021%=      5-min Rain = 0
KVA1 210132Z 08015KT 34/09 A3005 RMK A01 T03360090  RH  022%=      5-min Rain = 0
KVA1 210133Z 08012KT 34/09 A3005 RMK A01 T03360092  RH  022%=      5-min Rain = 0
KVA1 210134Z 07013KT 34/09 A3005 RMK A01 T03360093  RH  022%=      5-min Rain = 0
KVA1 210135Z 08014G20KT 34/09 A3005 RMK A01 T03350093  RH  023%=      5-min Rain = 0
KVA1 210136Z 08014G21KT 34/09 A3005 RMK A01 T03350093  RH  023%=      5-min Rain = 0
KVA1 210137Z 08012G17KT 34/09 A3005 RMK A01 T03350092  RH  022%=      5-min Rain = 0
KVA1 210138Z 08012KT 34/09 A3005 RMK A01 T03350092  RH  022%=      5-min Rain = 0
KVA1 210139Z 08009KT 33/09 A3005 RMK A01 T03340092  RH  023%=      5-min Rain = 0
KVA1 210140Z 08013KT 33/09 A3005 RMK A01 T03340092  RH  023%=      5-min Rain = 0
KVA1 210141Z 08012KT 33/09 A3005 RMK A01 T03340092  RH  023%=      5-min Rain = 0
KVA1 210142Z 08011KT 33/09 A3005 RMK A01 T03330092  RH  023%=      5-min Rain = 0
KVA1 210143Z 08012KT 33/09 A3005 RMK A01 T03330092  RH  023%=      5-min Rain = 0
KVA1 210144Z 09009KT 33/09 A3005 RMK A01 T03320092  RH  023%=      5-min Rain = 0
KVA1 210145Z 08010KT 33/09 A3005 RMK A01 T03320092  RH  023%=      5-min Rain = 0
KVA1 210146Z 08012KT 33/09 A3005 RMK A01 T03310092  RH  023%=      5-min Rain = 0
KVA1 210147Z 09014KT 33/09 A3005 RMK A01 T03310091  RH  023%=      5-min Rain = 0
KVA1 210148Z 09011KT 33/09 A3005 RMK A01 T03310091  RH  023%=      5-min Rain = 0
KVA1 210149Z 09010KT 33/09 A3005 RMK A01 T03310091  RH  023%=      5-min Rain = 0
KVA1 210150Z 08010KT 33/09 A3005 RMK A01 T03310092  RH  023%=      5-min Rain = 0
KVA1 210151Z 08010KT 33/09 A3005 RMK A01 T03300091  RH  023%=      5-min Rain = 0
KVA1 210152Z 09009KT 33/09 A3005 RMK A01 T03300091  RH  023%=      5-min Rain = 0
KVA1 210153Z 08011KT 33/09 A3005 RMK A01 T03300091  RH  023%=      5-min Rain = 0
KVA1 210154Z 09011KT 33/09 A3005 RMK A01 T03290091  RH  023%=      5-min Rain = 0
KVA1 210155Z 09010KT 33/09 A3005 RMK A01 T03290091  RH  023%=      5-min Rain = 0
KVA1 210156Z 08010G15KT 33/09 A3005 RMK A01 T03290091  RH  023%=      5-min Rain = 0
KVA1 210157Z 08011KT 33/09 A3005 RMK A01 T03290091  RH  023%=      5-min Rain = 0
KVA1 210158Z 08009G14KT 33/09 A3005 RMK A01 T03290091  RH  023%=      5-min Rain = 0
KVA1 210159Z 08011KT 33/09 A3005 RMK A01 T03280091  RH  023%=      5-min Rain = 0
KVA1 210200Z 08012KT 33/09 A3005 RMK A01 T03280092  RH  023%=      5-min Rain = 0
KVA1 210201Z 08011KT 33/09 A3006 RMK A01 T03280092  RH  023%=      5-min Rain = 0
KVA1 210202Z 08010KT 33/09 A3006 RMK A01 T03280092  RH  023%=      5-min Rain = 0
KVA1 210203Z 08010KT 33/09 A3006 RMK A01 T03270092  RH  024%=      5-min Rain = 0
KVA1 210204Z 08011KT 33/09 A3006 RMK A01 T03260092  RH  024%=      5-min Rain = 0
KVA1 210205Z 08008KT 33/09 A3006 RMK A01 T03260093  RH  024%=      5-min Rain = 0
KVA1 210206Z 08010KT 33/09 A3006 RMK A01 T03250093  RH  024%=      5-min Rain = 0
KVA1 210207Z 08009KT 33/09 A3006 RMK A01 T03250093  RH  024%=      5-min Rain = 0
KVA1 210208Z 08009KT 33/09 A3006 RMK A01 T03250094  RH  024%=      5-min Rain = 0
KVA1 210209Z 08010KT 33/09 A3006 RMK A01 T03250094  RH  024%=      5-min Rain = 0
KVA1 210210Z 08014KT 33/10 A3006 RMK A01 T03250095  RH  024%=      5-min Rain = 0
KVA1 210211Z 08013KT 33/10 A3006 RMK A01 T03250095  RH  024%=      5-min Rain = 0
KVA1 210212Z 08012KT 33/10 A3006 RMK A01 T03250095  RH  024%=      5-min Rain = 0
KVA1 210213Z 08011KT 32/10 A3006 RMK A01 T03240096  RH  024%=      5-min Rain = 0
KVA1 210214Z 08013KT 32/10 A3006 RMK A01 T03240096  RH  025%=      5-min Rain = 0
KVA1 210215Z 08013KT 32/10 A3006 RMK A01 T03230097  RH  025%=      5-min Rain = 0
KVA1 210216Z 08011KT 32/10 A3006 RMK A01 T03240097  RH  025%=      5-min Rain = 0
KVA1 210217Z 08011KT 32/10 A3006 RMK A01 T03230098  RH  025%=      5-min Rain = 0
KVA1 210218Z 09012G17KT 32/10 A3006 RMK A01 T03230099  RH  025%=      5-min Rain = 0
KVA1 210219Z 09012KT 32/10 A3006 RMK A01 T03230100  RH  025%=      5-min Rain = 0
KVA1 210220Z 08013KT 32/10 A3006 RMK A01 T03220101  RH  026%=      5-min Rain = 0
KVA1 210221Z 08012KT 32/10 A3006 RMK A01 T03220101  RH  026%=      5-min Rain = 0
KVA1 210222Z 09013KT 32/10 A3006 RMK A01 T03220102  RH  026%=      5-min Rain = 0
KVA1 210223Z 08012KT 32/10 A3007 RMK A01 T03210102  RH  026%=      5-min Rain = 0
KVA1 210224Z 08013KT 32/10 A3006 RMK A01 T03210103  RH  026%=      5-min Rain = 0
KVA1 210225Z 08012G17KT 32/10 A3006 RMK A01 T03210103  RH  026%=      5-min Rain = 0
KVA1 210226Z 08011G17KT 32/10 A3007 RMK A01 T03200104  RH  026%=      5-min Rain = 0
KVA1 210227Z 09012G18KT 32/11 A3006 RMK A01 T03200105  RH  027%=      5-min Rain = 0
KVA1 210228Z 08013KT 32/11 A3006 RMK A01 T03200105  RH  027%=      5-min Rain = 0
KVA1 210229Z 09015KT 32/11 A3006 RMK A01 T03190106  RH  027%=      5-min Rain = 0
KVA1 210230Z 08012KT 32/11 A3007 RMK A01 T03190107  RH  027%=      5-min Rain = 0
KVA1 210231Z 08011KT 32/11 A3007 RMK A01 T03190107  RH  027%=      5-min Rain = 0
KVA1 210232Z 08013KT 32/11 A3007 RMK A01 T03180107  RH  027%=      5-min Rain = 0
KVA1 210233Z 08014KT 32/11 A3007 RMK A01 T03180108  RH  028%=      5-min Rain = 0
KVA1 210234Z 08010KT 32/11 A3007 RMK A01 T03180109  RH  028%=      5-min Rain = 0
KVA1 210235Z 08013KT 32/11 A3007 RMK A01 T03170109  RH  028%=      5-min Rain = 0
KVA1 210236Z 08013KT 32/11 A3007 RMK A01 T03170109  RH  028%=      5-min Rain = 0
KVA1 210237Z 08012KT 32/11 A3007 RMK A01 T03170110  RH  028%=      5-min Rain = 0
KVA1 210238Z 08013KT 32/11 A3007 RMK A01 T03170110  RH  028%=      5-min Rain = 0
KVA1 210239Z 08009KT 32/11 A3007 RMK A01 T03160110  RH  028%=      5-min Rain = 0
KVA1 210240Z 08011KT 32/11 A3007 RMK A01 T03160111  RH  028%=      5-min Rain = 0
KVA1 210241Z 08011KT 32/11 A3007 RMK A01 T03160111  RH  029%=      5-min Rain = 0
KVA1 210242Z 08011KT 32/11 A3007 RMK A01 T03150111  RH  029%=      5-min Rain = 0
KVA1 210243Z 08010KT 31/11 A3007 RMK A01 T03140112  RH  029%=      5-min Rain = 0
KVA1 210244Z 09012G17KT 31/11 A3007 RMK A01 T03140112  RH  029%=      5-min Rain = 0
KVA1 210245Z 08010KT 31/11 A3007 RMK A01 T03140112  RH  029%=      5-min Rain = 0
KVA1 210246Z 08010KT 31/11 A3007 RMK A01 T03140112  RH  029%=      5-min Rain = 0
KVA1 210247Z 08011KT 31/11 A3007 RMK A01 T03130113  RH  029%=      5-min Rain = 0
KVA1 210248Z 08011G17KT 31/11 A3007 RMK A01 T03130113  RH  029%=      5-min Rain = 0
KVA1 210249Z 08012KT 31/11 A3007 RMK A01 T03130113  RH  029%=      5-min Rain = 0
KVA1 210250Z 08011KT 31/11 A3007 RMK A01 T03130113  RH  029%=      5-min Rain = 0
KVA1 210251Z 08012KT 31/11 A3007 RMK A01 T03130114  RH  029%=      5-min Rain = 0
KVA1 210252Z 08012KT 31/11 A3007 RMK A01 T03130114  RH  030%=      5-min Rain = 0
KVA1 210253Z 08009KT 31/11 A3008 RMK A01 T03130114  RH  030%=      5-min Rain = 0
KVA1 210254Z 08008KT 31/11 A3008 RMK A01 T03120114  RH  030%=      5-min Rain = 0
KVA1 210255Z 08011KT 31/11 A3008 RMK A01 T03110114  RH  030%=      5-min Rain = 0
KVA1 210256Z 08011KT 31/11 A3008 RMK A01 T03110114  RH  030%=      5-min Rain = 0
KVA1 210257Z 09010KT 31/11 A3008 RMK A01 T03100114  RH  030%=      5-min Rain = 0
KVA1 210258Z 08008KT 31/11 A3008 RMK A01 T03100114  RH  030%=      5-min Rain = 0
KVA1 210259Z 08009KT 31/12 A3008 RMK A01 T03100115  RH  030%=      5-min Rain = 0
KVA1 210300Z 08010KT 31/12 A3008 RMK A01 T03090115  RH  030%=      5-min Rain = 0
KVA1 210301Z 08009KT 31/12 A3008 RMK A01 T03090115  RH  030%=      5-min Rain = 0
KVA1 210302Z 08010KT 31/12 A3008 RMK A01 T03090115  RH  030%=      5-min Rain = 0
KVA1 210303Z 08009KT 31/12 A3008 RMK A01 T03080115  RH  031%=      5-min Rain = 0
KVA1 210304Z 07009KT 31/12 A3008 RMK A01 T03070115  RH  031%=      5-min Rain = 0
KVA1 210305Z 08009KT 31/12 A3008 RMK A01 T03070116  RH  031%=      5-min Rain = 0
KVA1 210306Z 08011KT 31/12 A3008 RMK A01 T03070116  RH  031%=      5-min Rain = 0
KVA1 210307Z 08011KT 31/12 A3008 RMK A01 T03070116  RH  031%=      5-min Rain = 0
KVA1 210308Z 08009KT 31/12 A3008 RMK A01 T03070116  RH  031%=      5-min Rain = 0
KVA1 210309Z 08009KT 31/12 A3008 RMK A01 T03070116  RH  031%=      5-min Rain = 0
KVA1 210310Z 09010KT 31/12 A3008 RMK A01 T03070117  RH  031%=      5-min Rain = 0
KVA1 210311Z 08010KT 31/12 A3008 RMK A01 T03060117  RH  031%=      5-min Rain = 0
KVA1 210312Z 08008KT 31/12 A3008 RMK A01 T03060117  RH  031%=      5-min Rain = 0
KVA1 210313Z 08008KT 31/12 A3008 RMK A01 T03050117  RH  031%=      5-min Rain = 0
KVA1 210314Z 09007KT 31/12 A3009 RMK A01 T03050117  RH  031%=      5-min Rain = 0
KVA1 210315Z 08007KT 30/12 A3009 RMK A01 T03040117  RH  032%=      5-min Rain = 0
KVA1 210316Z 08007KT 30/12 A3009 RMK A01 T03040117  RH  032%=      5-min Rain = 0
KVA1 210317Z 09007KT 30/12 A3009 RMK A01 T03040117  RH  032%=      5-min Rain = 0
KVA1 210318Z 09010KT 30/12 A3009 RMK A01 T03030117  RH  032%=      5-min Rain = 0
KVA1 210319Z 09008KT 30/12 A3009 RMK A01 T03030117  RH  032%=      5-min Rain = 0
KVA1 210320Z 09006KT 30/12 A3009 RMK A01 T03040117  RH  032%=      5-min Rain = 0
KVA1 210321Z 09008KT 30/12 A3009 RMK A01 T03030117  RH  032%=      5-min Rain = 0
KVA1 210322Z 08009KT 30/12 A3009 RMK A01 T03030117  RH  032%=      5-min Rain = 0
KVA1 210323Z 10008KT 30/12 A3009 RMK A01 T03030117  RH  032%=      5-min Rain = 0
KVA1 210324Z 09007KT 30/12 A3009 RMK A01 T03040118  RH  032%=      5-min Rain = 0
KVA1 210325Z 10009KT 30/12 A3009 RMK A01 T03030118  RH  032%=      5-min Rain = 0
KVA1 210326Z 09007KT 30/12 A3009 RMK A01 T03030118  RH  032%=      5-min Rain = 0
KVA1 210327Z 10007KT 30/12 A3009 RMK A01 T03030118  RH  032%=      5-min Rain = 0
KVA1 210328Z 10007KT 30/12 A3009 RMK A01 T03030119  RH  032%=      5-min Rain = 0
KVA1 210329Z 09007KT 30/12 A3009 RMK A01 T03020118  RH  032%=      5-min Rain = 0
KVA1 210330Z 10008KT 30/12 A3009 RMK A01 T03020119  RH  032%=      5-min Rain = 0
KVA1 210331Z 09006KT 30/12 A301 RMK A01 T03020119  RH  032%=      5-min Rain = 0
KVA1 210332Z 09008KT 30/12 A301 RMK A01 T03010119  RH  032%=      5-min Rain = 0
KVA1 210333Z 09007KT 30/12 A301 RMK A01 T03010119  RH  032%=      5-min Rain = 0
KVA1 210334Z 09007KT 30/12 A301 RMK A01 T03010118  RH  033%=      5-min Rain = 0
KVA1 210335Z 09006KT 30/12 A301 RMK A01 T03010119  RH  033%=      5-min Rain = 0
KVA1 210336Z 09006KT 30/12 A301 RMK A01 T03000119  RH  033%=      5-min Rain = 0
KVA1 210337Z 09005KT 30/12 A301 RMK A01 T03000119  RH  033%=      5-min Rain = 0
KVA1 210338Z 09005KT 30/12 A301 RMK A01 T02990119  RH  033%=      5-min Rain = 0
KVA1 210339Z 10006KT 30/12 A301 RMK A01 T02990119  RH  033%=      5-min Rain = 0
KVA1 210340Z 09005KT 30/12 A301 RMK A01 T02980119  RH  033%=      5-min Rain = 0
KVA1 210341Z 09005KT 30/12 A301 RMK A01 T02980119  RH  033%=      5-min Rain = 0
KVA1 210342Z 09004KT 30/12 A301 RMK A01 T02970119  RH  033%=      5-min Rain = 0
KVA1 210343Z 09005KT 30/12 A301 RMK A01 T02970119  RH  033%=      5-min Rain = 0
KVA1 210344Z 09004KT 30/12 A301 RMK A01 T02970118  RH  033%=      5-min Rain = 0
KVA1 210345Z 09004KT 30/12 A301 RMK A01 T02970119  RH  033%=      5-min Rain = 0
KVA1 210346Z 08005KT 30/12 A301 RMK A01 T02960119  RH  034%=      5-min Rain = 0
KVA1 210347Z 09006KT 30/12 A301 RMK A01 T02950118  RH  034%=      5-min Rain = 0
KVA1 210348Z 09006KT 30/12 A301 RMK A01 T02950118  RH  034%=      5-min Rain = 0
KVA1 210349Z 09007KT 30/12 A3011 RMK A01 T02960118  RH  034%=      5-min Rain = 0
KVA1 210350Z 08006KT 30/12 A3011 RMK A01 T02960118  RH  034%=      5-min Rain = 0
KVA1 210351Z 08006KT 30/12 A3011 RMK A01 T02960119  RH  034%=      5-min Rain = 0
KVA1 210352Z 08005KT 30/12 A3011 RMK A01 T02960119  RH  034%=      5-min Rain = 0
KVA1 210353Z 08005KT 30/12 A3011 RMK A01 T02950119  RH  034%=      5-min Rain = 0
KVA1 210354Z 08008KT 30/12 A3011 RMK A01 T02950119  RH  034%=      5-min Rain = 0
KVA1 210355Z 08006KT 30/12 A3011 RMK A01 T02950119  RH  034%=      5-min Rain = 0
KVA1 210356Z 08007KT 30/12 A3011 RMK A01 T02950120  RH  034%=      5-min Rain = 0
KVA1 210357Z 08006KT 29/12 A3011 RMK A01 T02940119  RH  034%=      5-min Rain = 0
KVA1 210358Z 08006KT 29/12 A3011 RMK A01 T02940120  RH  034%=      5-min Rain = 0
KVA1 210359Z 08007KT 29/12 A3011 RMK A01 T02930119  RH  034%=      5-min Rain = 0
KVA1 210400Z 07005KT 29/12 A3011 RMK A01 T02930120  RH  034%=      5-min Rain = 0
KVA1 210401Z 08006KT 29/12 A3011 RMK A01 T02930120  RH  034%=      5-min Rain = 0
KVA1 210402Z 07006KT 29/12 A3011 RMK A01 T02930120  RH  034%=      5-min Rain = 0
KVA1 210403Z 07006KT 29/12 A3011 RMK A01 T02920120  RH  035%=      5-min Rain = 0
KVA1 210404Z 07006KT 29/12 A3011 RMK A01 T02920120  RH  035%=      5-min Rain = 0
KVA1 210405Z 07005KT 29/12 A3011 RMK A01 T02910120  RH  035%=      5-min Rain = 0
KVA1 210406Z 07005KT 29/12 A3011 RMK A01 T02910120  RH  035%=      5-min Rain = 0
KVA1 210407Z 07005KT 29/12 A3011 RMK A01 T02900120  RH  035%=      5-min Rain = 0
KVA1 210408Z 08005KT 29/12 A3011 RMK A01 T02900120  RH  035%=      5-min Rain = 0
KVA1 210409Z 07004KT 29/12 A3011 RMK A01 T02890119  RH  035%=      5-min Rain = 0
KVA1 210410Z 08005KT 29/12 A3011 RMK A01 T02890120  RH  035%=      5-min Rain = 0
KVA1 210411Z 08005KT 29/12 A3011 RMK A01 T02890119  RH  035%=      5-min Rain = 0
KVA1 210412Z 08005KT 29/12 A3011 RMK A01 T02890119  RH  035%=      5-min Rain = 0
KVA1 210413Z 08004KT 29/12 A3011 RMK A01 T02880119  RH  035%=      5-min Rain = 0
KVA1 210414Z 08005KT 29/12 A3011 RMK A01 T02880119  RH  035%=      5-min Rain = 0
KVA1 210415Z 08005KT 29/12 A3011 RMK A01 T02870119  RH  035%=      5-min Rain = 0
KVA1 210416Z 08005KT 29/12 A3011 RMK A01 T02870119  RH  035%=      5-min Rain = 0
KVA1 210417Z 08005KT 29/12 A3011 RMK A01 T02860119  RH  035%=      5-min Rain = 0
KVA1 210418Z 08006KT 29/12 A3011 RMK A01 T02860119  RH  036%=      5-min Rain = 0
KVA1 210419Z 08004KT 29/12 A3011 RMK A01 T02850119  RH  036%=      5-min Rain = 0
KVA1 210420Z 09005KT 29/12 A3011 RMK A01 T02850119  RH  036%=      5-min Rain = 0
KVA1 210421Z 09005KT 28/12 A3011 RMK A01 T02840119  RH  036%=      5-min Rain = 0
KVA1 210422Z 09007KT 28/12 A3011 RMK A01 T02840117  RH  035%=      5-min Rain = 0
KVA1 210423Z 09006KT 29/12 A3011 RMK A01 T02860116  RH  035%=      5-min Rain = 0
KVA1 210424Z 10007KT 29/12 A3011 RMK A01 T02870116  RH  035%=      5-min Rain = 0
KVA1 210425Z 09005KT 29/12 A3011 RMK A01 T02880116  RH  034%=      5-min Rain = 0
KVA1 210426Z 10005KT 29/12 A3011 RMK A01 T02880115  RH  034%=      5-min Rain = 0
KVA1 210427Z 10005KT 29/12 A3011 RMK A01 T02890116  RH  034%=      5-min Rain = 0
KVA1 210428Z 09006KT 29/12 A3011 RMK A01 T02890115  RH  034%=      5-min Rain = 0
KVA1 210429Z 10007KT 29/12 A3011 RMK A01 T02890115  RH  034%=      5-min Rain = 0
KVA1 210430Z 11008KT 29/12 A3011 RMK A01 T02900116  RH  034%=      5-min Rain = 0
KVA1 210431Z 10007KT 29/12 A3011 RMK A01 T02900116  RH  034%=      5-min Rain = 0
KVA1 210432Z 11006KT 29/12 A3011 RMK A01 T02910116  RH  034%=      5-min Rain = 0
KVA1 210433Z 11007KT 29/12 A3011 RMK A01 T02910116  RH  034%=      5-min Rain = 0
KVA1 210434Z 11006KT 29/12 A3011 RMK A01 T02910116  RH  034%=      5-min Rain = 0
KVA1 210435Z 10007KT 29/12 A3011 RMK A01 T02910116  RH  034%=      5-min Rain = 0
KVA1 210436Z 11007KT 29/12 A3011 RMK A01 T02910117  RH  034%=      5-min Rain = 0
KVA1 210437Z 11007KT 29/12 A3011 RMK A01 T02910117  RH  034%=      5-min Rain = 0
KVA1 210438Z 11008KT 29/12 A3011 RMK A01 T02910117  RH  034%=      5-min Rain = 0
KVA1 210439Z 12007KT 29/12 A3011 RMK A01 T02910118  RH  034%=      5-min Rain = 0
KVA1 210440Z 11007KT 29/12 A3011 RMK A01 T02910118  RH  034%=      5-min Rain = 0
KVA1 210441Z 11007KT 29/12 A3011 RMK A01 T02910118  RH  034%=      5-min Rain = 0
KVA1 210442Z 11007KT 29/12 A3011 RMK A01 T02910118  RH  034%=      5-min Rain = 0
KVA1 210443Z 11006KT 29/12 A3011 RMK A01 T02920118  RH  034%=      5-min Rain = 0
KVA1 210444Z 11006KT 29/12 A3011 RMK A01 T02920119  RH  034%=      5-min Rain = 0
KVA1 210445Z 11007KT 29/12 A3011 RMK A01 T02920119  RH  034%=      5-min Rain = 0
KVA1 210446Z 11007KT 29/12 A3011 RMK A01 T02920119  RH  034%=      5-min Rain = 0
KVA1 210447Z 11007KT 29/12 A3011 RMK A01 T02920119  RH  034%=      5-min Rain = 0
KVA1 210448Z 11007KT 29/12 A3011 RMK A01 T02920119  RH  034%=      5-min Rain = 0
KVA1 210449Z 11007KT 29/12 A3011 RMK A01 T02910119  RH  034%=      5-min Rain = 0
KVA1 210450Z 11005KT 29/12 A3011 RMK A01 T02920119  RH  034%=      5-min Rain = 0
KVA1 210451Z 11007KT 29/12 A3011 RMK A01 T02910119  RH  034%=      5-min Rain = 0
KVA1 210452Z 12006KT 29/12 A3011 RMK A01 T02910119  RH  034%=      5-min Rain = 0
KVA1 210453Z 12006KT 29/12 A3011 RMK A01 T02910119  RH  034%=      5-min Rain = 0
KVA1 210454Z 11006KT 29/12 A3011 RMK A01 T02910118  RH  034%=      5-min Rain = 0
KVA1 210455Z 11005KT 29/12 A3011 RMK A01 T02910119  RH  035%=      5-min Rain = 0
KVA1 210456Z 12005KT 29/12 A3011 RMK A01 T02900118  RH  035%=      5-min Rain = 0
KVA1 210457Z 11005KT 29/12 A3011 RMK A01 T02900119  RH  035%=      5-min Rain = 0
KVA1 210458Z 11004KT 29/12 A3011 RMK A01 T02890119  RH  035%=      5-min Rain = 0
KVA1 210459Z 11004KT 29/12 A3011 RMK A01 T02880119  RH  035%=      5-min Rain = 0

Page generated in 0.0722 seconds.